<?xml version='1.0' encoding='UTF-8'?><gpx version="1.1" creator="JPX - https://github.com/jenetics/jpx" xmlns="http://www.topografix.com/GPX/1/1"><trk><trkseg><trkpt lat="45.420565" lon="9.14048"><ele>111.0</ele><time>2026-04-18T08:24:57.99Z</time></trkpt><trkpt lat="45.420505" lon="9.1405217"><ele>111.0</ele><time>2026-04-18T08:24:58.99Z</time></trkpt><trkpt lat="45.4204417" lon="9.14056"><ele>111.0</ele><time>2026-04-18T08:24:59.99Z</time></trkpt><trkpt lat="45.420365" lon="9.140605"><ele>111.0</ele><time>2026-04-18T08:25:00.991Z</time></trkpt><trkpt lat="45.4202933" lon="9.1406483"><ele>111.0</ele><time>2026-04-18T08:25:01.99Z</time></trkpt><trkpt lat="45.42018" lon="9.140705"><ele>111.0</ele><time>2026-04-18T08:25:03.99Z</time></trkpt><trkpt lat="45.420075" lon="9.1407567"><ele>110.0</ele><time>2026-04-18T08:25:05.99Z</time></trkpt><trkpt lat="45.4200283" lon="9.140875"><ele>109.0</ele><time>2026-04-18T08:25:07.99Z</time></trkpt><trkpt lat="45.4200383" lon="9.14097"><ele>108.0</ele><time>2026-04-18T08:25:08.99Z</time></trkpt><trkpt lat="45.4200633" lon="9.1410783"><ele>107.0</ele><time>2026-04-18T08:25:09.99Z</time></trkpt><trkpt lat="45.4201033" lon="9.1412117"><ele>106.0</ele><time>2026-04-18T08:25:10.99Z</time></trkpt><trkpt lat="45.4201433" lon="9.1413667"><ele>106.0</ele><time>2026-04-18T08:25:11.99Z</time></trkpt><trkpt lat="45.4201883" lon="9.1415367"><ele>106.0</ele><time>2026-04-18T08:25:12.99Z</time></trkpt><trkpt lat="45.4202367" lon="9.1417017"><ele>106.0</ele><time>2026-04-18T08:25:13.991Z</time></trkpt><trkpt lat="45.4202817" lon="9.1418717"><ele>106.0</ele><time>2026-04-18T08:25:14.99Z</time></trkpt><trkpt lat="45.4203283" lon="9.1420433"><ele>106.0</ele><time>2026-04-18T08:25:15.99Z</time></trkpt><trkpt lat="45.42037" lon="9.1422067"><ele>106.0</ele><time>2026-04-18T08:25:16.99Z</time></trkpt><trkpt lat="45.4204117" lon="9.142355"><ele>106.0</ele><time>2026-04-18T08:25:17.99Z</time></trkpt><trkpt lat="45.4204533" lon="9.1425"><ele>106.0</ele><time>2026-04-18T08:25:18.99Z</time></trkpt><trkpt lat="45.4204917" lon="9.1426467"><ele>107.0</ele><time>2026-04-18T08:25:19.99Z</time></trkpt><trkpt lat="45.4205267" lon="9.1427883"><ele>108.0</ele><time>2026-04-18T08:25:20.99Z</time></trkpt><trkpt lat="45.4205633" lon="9.1429083"><ele>109.0</ele><time>2026-04-18T08:25:21.991Z</time></trkpt><trkpt lat="45.4206017" lon="9.14301"><ele>110.0</ele><time>2026-04-18T08:25:22.99Z</time></trkpt><trkpt lat="45.4206233" lon="9.143165"><ele>111.0</ele><time>2026-04-18T08:25:24.99Z</time></trkpt><trkpt lat="45.4205617" lon="9.1432817"><ele>111.19999999999999</ele><time>2026-04-18T08:25:26.99Z</time></trkpt><trkpt lat="45.420485" lon="9.143335"><ele>111.39999999999999</ele><time>2026-04-18T08:25:27.99Z</time></trkpt><trkpt lat="45.4203883" lon="9.1434133"><ele>111.6</ele><time>2026-04-18T08:25:28.99Z</time></trkpt><trkpt lat="45.4202783" lon="9.1435"><ele>111.8</ele><time>2026-04-18T08:25:29.991Z</time></trkpt><trkpt lat="45.4201683" lon="9.1435867"><ele>112.0</ele><time>2026-04-18T08:25:30.99Z</time></trkpt><trkpt lat="45.420055" lon="9.1436833"><ele>111.25</ele><time>2026-04-18T08:25:31.99Z</time></trkpt><trkpt lat="45.4199317" lon="9.143785"><ele>110.5</ele><time>2026-04-18T08:25:32.99Z</time></trkpt><trkpt lat="45.4198067" lon="9.1438883"><ele>109.75</ele><time>2026-04-18T08:25:33.99Z</time></trkpt><trkpt lat="45.4196917" lon="9.14399"><ele>109.0</ele><time>2026-04-18T08:25:34.99Z</time></trkpt><trkpt lat="45.41957" lon="9.144085"><ele>109.0</ele><time>2026-04-18T08:25:35.99Z</time></trkpt><trkpt lat="45.4194533" lon="9.1441883"><ele>109.0</ele><time>2026-04-18T08:25:36.99Z</time></trkpt><trkpt lat="45.4193467" lon="9.14429"><ele>109.0</ele><time>2026-04-18T08:25:37.99Z</time></trkpt><trkpt lat="45.4192417" lon="9.14438"><ele>109.0</ele><time>2026-04-18T08:25:38.99Z</time></trkpt><trkpt lat="45.4191267" lon="9.1444767"><ele>109.0</ele><time>2026-04-18T08:25:39.99Z</time></trkpt><trkpt lat="45.4190283" lon="9.144565"><ele>109.0</ele><time>2026-04-18T08:25:40.99Z</time></trkpt><trkpt lat="45.41892" lon="9.14465"><ele>109.0</ele><time>2026-04-18T08:25:41.99Z</time></trkpt><trkpt lat="45.418825" lon="9.1447283"><ele>109.0</ele><time>2026-04-18T08:25:42.99Z</time></trkpt><trkpt lat="45.4187383" lon="9.144795"><ele>109.0</ele><time>2026-04-18T08:25:43.99Z</time></trkpt><trkpt lat="45.4186583" lon="9.144855"><ele>108.83333333333334</ele><time>2026-04-18T08:25:44.99Z</time></trkpt><trkpt lat="45.4185967" lon="9.144905"><ele>108.66666666666667</ele><time>2026-04-18T08:25:45.99Z</time></trkpt><trkpt lat="45.41855" lon="9.1449733"><ele>108.5</ele><time>2026-04-18T08:25:46.99Z</time></trkpt><trkpt lat="45.418495" lon="9.1451317"><ele>108.33333333333334</ele><time>2026-04-18T08:25:48.99Z</time></trkpt><trkpt lat="45.41846" lon="9.1452083"><ele>108.16666666666667</ele><time>2026-04-18T08:25:49.99Z</time></trkpt><trkpt lat="45.4183717" lon="9.14528"><ele>108.0</ele><time>2026-04-18T08:25:51.99Z</time></trkpt><trkpt lat="45.41826" lon="9.1452883"><ele>108.0</ele><time>2026-04-18T08:25:53.99Z</time></trkpt><trkpt lat="45.4181883" lon="9.145315"><ele>108.0</ele><time>2026-04-18T08:25:54.99Z</time></trkpt><trkpt lat="45.4181133" lon="9.145365"><ele>108.0</ele><time>2026-04-18T08:25:55.99Z</time></trkpt><trkpt lat="45.4180367" lon="9.14541"><ele>108.0</ele><time>2026-04-18T08:25:56.99Z</time></trkpt><trkpt lat="45.41794" lon="9.1454367"><ele>108.0</ele><time>2026-04-18T08:25:57.99Z</time></trkpt><trkpt lat="45.4178433" lon="9.1454667"><ele>108.0</ele><time>2026-04-18T08:25:58.99Z</time></trkpt><trkpt lat="45.4177483" lon="9.145505"><ele>108.0</ele><time>2026-04-18T08:25:59.99Z</time></trkpt><trkpt lat="45.41765" lon="9.1455717"><ele>108.0</ele><time>2026-04-18T08:26:00.99Z</time></trkpt><trkpt lat="45.4175467" lon="9.1456617"><ele>108.0</ele><time>2026-04-18T08:26:01.99Z</time></trkpt><trkpt lat="45.4174433" lon="9.1457567"><ele>108.0</ele><time>2026-04-18T08:26:02.99Z</time></trkpt><trkpt lat="45.4173417" lon="9.1458483"><ele>107.5</ele><time>2026-04-18T08:26:03.99Z</time></trkpt><trkpt lat="45.4172283" lon="9.1459333"><ele>107.0</ele><time>2026-04-18T08:26:04.99Z</time></trkpt><trkpt lat="45.4171233" lon="9.1460233"><ele>106.5</ele><time>2026-04-18T08:26:05.99Z</time></trkpt><trkpt lat="45.4170133" lon="9.1461117"><ele>106.0</ele><time>2026-04-18T08:26:06.99Z</time></trkpt><trkpt lat="45.4169017" lon="9.146215"><ele>106.0</ele><time>2026-04-18T08:26:07.99Z</time></trkpt><trkpt lat="45.4167983" lon="9.146325"><ele>106.0</ele><time>2026-04-18T08:26:08.99Z</time></trkpt><trkpt lat="45.4167067" lon="9.1464433"><ele>106.0</ele><time>2026-04-18T08:26:09.99Z</time></trkpt><trkpt lat="45.4166183" lon="9.146555"><ele>106.0</ele><time>2026-04-18T08:26:10.99Z</time></trkpt><trkpt lat="45.4165283" lon="9.1466533"><ele>105.75</ele><time>2026-04-18T08:26:11.99Z</time></trkpt><trkpt lat="45.4164433" lon="9.1467633"><ele>105.5</ele><time>2026-04-18T08:26:12.99Z</time></trkpt><trkpt lat="45.4163633" lon="9.1468783"><ele>105.25</ele><time>2026-04-18T08:26:13.99Z</time></trkpt><trkpt lat="45.4162833" lon="9.1469917"><ele>105.0</ele><time>2026-04-18T08:26:14.99Z</time></trkpt><trkpt lat="45.4161867" lon="9.1471083"><ele>105.6</ele><time>2026-04-18T08:26:15.99Z</time></trkpt><trkpt lat="45.4160883" lon="9.1472083"><ele>106.2</ele><time>2026-04-18T08:26:16.99Z</time></trkpt><trkpt lat="45.4160067" lon="9.1472767"><ele>106.80000000000001</ele><time>2026-04-18T08:26:17.99Z</time></trkpt><trkpt lat="45.4159133" lon="9.14733"><ele>107.4</ele><time>2026-04-18T08:26:18.99Z</time></trkpt><trkpt lat="45.4158167" lon="9.14736"><ele>108.0</ele><time>2026-04-18T08:26:19.99Z</time></trkpt><trkpt lat="45.4157117" lon="9.1473783"><ele>108.0</ele><time>2026-04-18T08:26:20.99Z</time></trkpt><trkpt lat="45.4155983" lon="9.1473917"><ele>108.0</ele><time>2026-04-18T08:26:21.99Z</time></trkpt><trkpt lat="45.415485" lon="9.1474133"><ele>108.0</ele><time>2026-04-18T08:26:22.99Z</time></trkpt><trkpt lat="45.4153733" lon="9.1474517"><ele>108.0</ele><time>2026-04-18T08:26:23.99Z</time></trkpt><trkpt lat="45.4152533" lon="9.1475133"><ele>108.0</ele><time>2026-04-18T08:26:24.99Z</time></trkpt><trkpt lat="45.4151333" lon="9.1475883"><ele>108.0</ele><time>2026-04-18T08:26:25.99Z</time></trkpt><trkpt lat="45.4150183" lon="9.1476567"><ele>108.0</ele><time>2026-04-18T08:26:26.99Z</time></trkpt><trkpt lat="45.414905" lon="9.1477233"><ele>108.0</ele><time>2026-04-18T08:26:27.99Z</time></trkpt><trkpt lat="45.414795" lon="9.1477683"><ele>108.0</ele><time>2026-04-18T08:26:28.99Z</time></trkpt><trkpt lat="45.4146783" lon="9.147815"><ele>108.0</ele><time>2026-04-18T08:26:29.99Z</time></trkpt><trkpt lat="45.4145583" lon="9.147875"><ele>108.0</ele><time>2026-04-18T08:26:30.99Z</time></trkpt><trkpt lat="45.4144517" lon="9.147915"><ele>108.0</ele><time>2026-04-18T08:26:31.99Z</time></trkpt><trkpt lat="45.414355" lon="9.147945"><ele>108.16666666666667</ele><time>2026-04-18T08:26:32.991Z</time></trkpt><trkpt lat="45.414265" lon="9.1479883"><ele>108.33333333333334</ele><time>2026-04-18T08:26:33.991Z</time></trkpt><trkpt lat="45.4141917" lon="9.14804"><ele>108.5</ele><time>2026-04-18T08:26:34.99Z</time></trkpt><trkpt lat="45.4141217" lon="9.148095"><ele>108.66666666666667</ele><time>2026-04-18T08:26:35.99Z</time></trkpt><trkpt lat="45.4140633" lon="9.1481467"><ele>108.83333333333334</ele><time>2026-04-18T08:26:36.99Z</time></trkpt><trkpt lat="45.413965" lon="9.1481867"><ele>109.0</ele><time>2026-04-18T08:26:38.99Z</time></trkpt><trkpt lat="45.4138767" lon="9.14811"><ele>109.0</ele><time>2026-04-18T08:26:40.99Z</time></trkpt><trkpt lat="45.41384" lon="9.1480217"><ele>109.0</ele><time>2026-04-18T08:26:41.99Z</time></trkpt><trkpt lat="45.4138017" lon="9.1479033"><ele>109.0</ele><time>2026-04-18T08:26:42.991Z</time></trkpt><trkpt lat="45.4137567" lon="9.1477633"><ele>109.0</ele><time>2026-04-18T08:26:43.99Z</time></trkpt><trkpt lat="45.413705" lon="9.14761"><ele>109.0</ele><time>2026-04-18T08:26:44.99Z</time></trkpt><trkpt lat="45.413645" lon="9.1474617"><ele>109.0</ele><time>2026-04-18T08:26:45.99Z</time></trkpt><trkpt lat="45.413585" lon="9.1473"><ele>109.0</ele><time>2026-04-18T08:26:46.99Z</time></trkpt><trkpt lat="45.4135267" lon="9.14715"><ele>109.0</ele><time>2026-04-18T08:26:47.99Z</time></trkpt><trkpt lat="45.4134717" lon="9.1469983"><ele>109.0</ele><time>2026-04-18T08:26:48.99Z</time></trkpt><trkpt lat="45.4134117" lon="9.1468417"><ele>109.0</ele><time>2026-04-18T08:26:49.99Z</time></trkpt><trkpt lat="45.4133567" lon="9.1466817"><ele>109.0</ele><time>2026-04-18T08:26:50.99Z</time></trkpt><trkpt lat="45.4133" lon="9.1465283"><ele>109.0</ele><time>2026-04-18T08:26:51.99Z</time></trkpt><trkpt lat="45.4132467" lon="9.1463683"><ele>109.0</ele><time>2026-04-18T08:26:52.99Z</time></trkpt><trkpt lat="45.4131933" lon="9.146205"><ele>108.75</ele><time>2026-04-18T08:26:53.99Z</time></trkpt><trkpt lat="45.41314" lon="9.1460483"><ele>108.5</ele><time>2026-04-18T08:26:54.99Z</time></trkpt><trkpt lat="45.4130917" lon="9.1458967"><ele>108.25</ele><time>2026-04-18T08:26:55.99Z</time></trkpt><trkpt lat="45.41305" lon="9.145745"><ele>108.0</ele><time>2026-04-18T08:26:56.99Z</time></trkpt><trkpt lat="45.4130067" lon="9.1455917"><ele>108.0</ele><time>2026-04-18T08:26:57.99Z</time></trkpt><trkpt lat="45.4129567" lon="9.1454467"><ele>108.0</ele><time>2026-04-18T08:26:58.99Z</time></trkpt><trkpt lat="45.4129033" lon="9.1452933"><ele>108.0</ele><time>2026-04-18T08:26:59.99Z</time></trkpt><trkpt lat="45.41285" lon="9.14513"><ele>108.0</ele><time>2026-04-18T08:27:00.99Z</time></trkpt><trkpt lat="45.4127917" lon="9.1449783"><ele>107.60000000000001</ele><time>2026-04-18T08:27:01.99Z</time></trkpt><trkpt lat="45.4127283" lon="9.1448483"><ele>107.20000000000002</ele><time>2026-04-18T08:27:02.99Z</time></trkpt><trkpt lat="45.4126583" lon="9.1447267"><ele>106.8</ele><time>2026-04-18T08:27:03.99Z</time></trkpt><trkpt lat="45.4125817" lon="9.1446133"><ele>106.4</ele><time>2026-04-18T08:27:04.99Z</time></trkpt><trkpt lat="45.4124933" lon="9.144525"><ele>106.0</ele><time>2026-04-18T08:27:05.99Z</time></trkpt><trkpt lat="45.4124" lon="9.1444483"><ele>106.0</ele><time>2026-04-18T08:27:06.99Z</time></trkpt><trkpt lat="45.412305" lon="9.1443683"><ele>106.0</ele><time>2026-04-18T08:27:07.99Z</time></trkpt><trkpt lat="45.4122117" lon="9.1442717"><ele>106.0</ele><time>2026-04-18T08:27:08.99Z</time></trkpt><trkpt lat="45.4121367" lon="9.1441617"><ele>106.0</ele><time>2026-04-18T08:27:09.99Z</time></trkpt><trkpt lat="45.4120683" lon="9.1440317"><ele>106.0</ele><time>2026-04-18T08:27:10.99Z</time></trkpt><trkpt lat="45.4120133" lon="9.1439083"><ele>106.0</ele><time>2026-04-18T08:27:11.99Z</time></trkpt><trkpt lat="45.4119533" lon="9.14381"><ele>106.0</ele><time>2026-04-18T08:27:12.99Z</time></trkpt><trkpt lat="45.41188" lon="9.143735"><ele>106.0</ele><time>2026-04-18T08:27:13.99Z</time></trkpt><trkpt lat="45.4117933" lon="9.1436717"><ele>106.0</ele><time>2026-04-18T08:27:14.99Z</time></trkpt><trkpt lat="45.4116817" lon="9.1436367"><ele>106.0</ele><time>2026-04-18T08:27:15.99Z</time></trkpt><trkpt lat="45.4115667" lon="9.143595"><ele>106.00000000000001</ele><time>2026-04-18T08:27:16.99Z</time></trkpt><trkpt lat="45.4114633" lon="9.1435617"><ele>106.0</ele><time>2026-04-18T08:27:17.99Z</time></trkpt><trkpt lat="45.4113633" lon="9.1435433"><ele>106.0</ele><time>2026-04-18T08:27:18.99Z</time></trkpt><trkpt lat="45.4112733" lon="9.14353"><ele>106.0</ele><time>2026-04-18T08:27:19.99Z</time></trkpt><trkpt lat="45.411205" lon="9.1434933"><ele>106.00000000000001</ele><time>2026-04-18T08:27:20.99Z</time></trkpt><trkpt lat="45.411155" lon="9.1434333"><ele>106.0</ele><time>2026-04-18T08:27:21.99Z</time></trkpt><trkpt lat="45.4111283" lon="9.143335"><ele>106.6</ele><time>2026-04-18T08:27:22.99Z</time></trkpt><trkpt lat="45.4111067" lon="9.1432133"><ele>107.19999999999999</ele><time>2026-04-18T08:27:23.99Z</time></trkpt><trkpt lat="45.4110833" lon="9.1430783"><ele>107.80000000000001</ele><time>2026-04-18T08:27:24.99Z</time></trkpt><trkpt lat="45.4110583" lon="9.142945"><ele>108.4</ele><time>2026-04-18T08:27:25.99Z</time></trkpt><trkpt lat="45.4110317" lon="9.14283"><ele>109.0</ele><time>2026-04-18T08:27:26.99Z</time></trkpt><trkpt lat="45.4110133" lon="9.142715"><ele>109.00000000000001</ele><time>2026-04-18T08:27:27.99Z</time></trkpt><trkpt lat="45.41098" lon="9.1426233"><ele>109.0</ele><time>2026-04-18T08:27:28.99Z</time></trkpt><trkpt lat="45.4108717" lon="9.1425233"><ele>109.0</ele><time>2026-04-18T08:27:30.99Z</time></trkpt><trkpt lat="45.4107933" lon="9.1425183"><ele>109.0</ele><time>2026-04-18T08:27:31.99Z</time></trkpt><trkpt lat="45.4107183" lon="9.14254"><ele>109.00000000000001</ele><time>2026-04-18T08:27:32.99Z</time></trkpt><trkpt lat="45.4106383" lon="9.1425683"><ele>109.0</ele><time>2026-04-18T08:27:33.99Z</time></trkpt><trkpt lat="45.4105417" lon="9.142585"><ele>109.0</ele><time>2026-04-18T08:27:34.99Z</time></trkpt><trkpt lat="45.4104433" lon="9.1425467"><ele>109.0</ele><time>2026-04-18T08:27:35.99Z</time></trkpt><trkpt lat="45.4103683" lon="9.14245"><ele>109.0</ele><time>2026-04-18T08:27:36.99Z</time></trkpt><trkpt lat="45.41031" lon="9.1423033"><ele>109.0</ele><time>2026-04-18T08:27:37.99Z</time></trkpt><trkpt lat="45.4102567" lon="9.1421417"><ele>109.0</ele><time>2026-04-18T08:27:38.99Z</time></trkpt><trkpt lat="45.4102133" lon="9.1419717"><ele>108.75</ele><time>2026-04-18T08:27:39.99Z</time></trkpt><trkpt lat="45.41018" lon="9.14181"><ele>108.5</ele><time>2026-04-18T08:27:40.99Z</time></trkpt><trkpt lat="45.410155" lon="9.141635"><ele>108.25</ele><time>2026-04-18T08:27:41.99Z</time></trkpt><trkpt lat="45.4101183" lon="9.1414517"><ele>108.0</ele><time>2026-04-18T08:27:42.99Z</time></trkpt><trkpt lat="45.410085" lon="9.141255"><ele>107.75</ele><time>2026-04-18T08:27:43.99Z</time></trkpt><trkpt lat="45.410045" lon="9.14106"><ele>107.5</ele><time>2026-04-18T08:27:44.99Z</time></trkpt><trkpt lat="45.4099983" lon="9.1408633"><ele>107.25</ele><time>2026-04-18T08:27:45.99Z</time></trkpt><trkpt lat="45.4099433" lon="9.1406733"><ele>107.0</ele><time>2026-04-18T08:27:46.99Z</time></trkpt><trkpt lat="45.40987" lon="9.1404983"><ele>106.75</ele><time>2026-04-18T08:27:47.99Z</time></trkpt><trkpt lat="45.40978" lon="9.140345"><ele>106.5</ele><time>2026-04-18T08:27:48.99Z</time></trkpt><trkpt lat="45.4096867" lon="9.1402083"><ele>106.25</ele><time>2026-04-18T08:27:49.99Z</time></trkpt><trkpt lat="45.4095917" lon="9.1400783"><ele>106.0</ele><time>2026-04-18T08:27:50.99Z</time></trkpt><trkpt lat="45.4095033" lon="9.1399433"><ele>106.0</ele><time>2026-04-18T08:27:51.99Z</time></trkpt><trkpt lat="45.4094183" lon="9.1398117"><ele>106.0</ele><time>2026-04-18T08:27:52.99Z</time></trkpt><trkpt lat="45.4093267" lon="9.13968"><ele>106.0</ele><time>2026-04-18T08:27:53.99Z</time></trkpt><trkpt lat="45.4092317" lon="9.1395467"><ele>106.0</ele><time>2026-04-18T08:27:54.99Z</time></trkpt><trkpt lat="45.4091333" lon="9.1394017"><ele>106.0</ele><time>2026-04-18T08:27:55.99Z</time></trkpt><trkpt lat="45.4090383" lon="9.1392483"><ele>106.0</ele><time>2026-04-18T08:27:56.99Z</time></trkpt><trkpt lat="45.4089433" lon="9.1391117"><ele>106.0</ele><time>2026-04-18T08:27:57.99Z</time></trkpt><trkpt lat="45.40885" lon="9.1389733"><ele>106.0</ele><time>2026-04-18T08:27:58.99Z</time></trkpt><trkpt lat="45.408765" lon="9.1388417"><ele>105.75</ele><time>2026-04-18T08:27:59.99Z</time></trkpt><trkpt lat="45.4086817" lon="9.1386817"><ele>105.5</ele><time>2026-04-18T08:28:00.99Z</time></trkpt><trkpt lat="45.4086233" lon="9.1385017"><ele>105.25</ele><time>2026-04-18T08:28:01.99Z</time></trkpt><trkpt lat="45.4085583" lon="9.1383067"><ele>105.0</ele><time>2026-04-18T08:28:02.99Z</time></trkpt><trkpt lat="45.4084867" lon="9.1381217"><ele>104.75</ele><time>2026-04-18T08:28:03.99Z</time></trkpt><trkpt lat="45.4084133" lon="9.1379483"><ele>104.5</ele><time>2026-04-18T08:28:04.99Z</time></trkpt><trkpt lat="45.40833" lon="9.137785"><ele>104.25</ele><time>2026-04-18T08:28:05.99Z</time></trkpt><trkpt lat="45.4082383" lon="9.1376583"><ele>104.0</ele><time>2026-04-18T08:28:06.99Z</time></trkpt><trkpt lat="45.4081367" lon="9.137575"><ele>104.0</ele><time>2026-04-18T08:28:07.991Z</time></trkpt><trkpt lat="45.4080117" lon="9.137535"><ele>104.0</ele><time>2026-04-18T08:28:08.99Z</time></trkpt><trkpt lat="45.4078833" lon="9.1375483"><ele>104.0</ele><time>2026-04-18T08:28:09.99Z</time></trkpt><trkpt lat="45.40774" lon="9.13759"><ele>104.0</ele><time>2026-04-18T08:28:10.99Z</time></trkpt><trkpt lat="45.4075883" lon="9.137625"><ele>104.0</ele><time>2026-04-18T08:28:11.991Z</time></trkpt><trkpt lat="45.4074433" lon="9.1376667"><ele>104.0</ele><time>2026-04-18T08:28:12.991Z</time></trkpt><trkpt lat="45.407285" lon="9.1377067"><ele>104.0</ele><time>2026-04-18T08:28:13.99Z</time></trkpt><trkpt lat="45.40713" lon="9.1377483"><ele>104.66666666666666</ele><time>2026-04-18T08:28:14.99Z</time></trkpt><trkpt lat="45.4069783" lon="9.1377933"><ele>105.33333333333334</ele><time>2026-04-18T08:28:15.991Z</time></trkpt><trkpt lat="45.4068283" lon="9.13784"><ele>106.0</ele><time>2026-04-18T08:28:16.99Z</time></trkpt><trkpt lat="45.4066833" lon="9.1378783"><ele>106.0</ele><time>2026-04-18T08:28:17.99Z</time></trkpt><trkpt lat="45.4065367" lon="9.1378967"><ele>106.0</ele><time>2026-04-18T08:28:18.99Z</time></trkpt><trkpt lat="45.4063967" lon="9.137905"><ele>106.0</ele><time>2026-04-18T08:28:19.99Z</time></trkpt><trkpt lat="45.40625" lon="9.1379033"><ele>106.0</ele><time>2026-04-18T08:28:20.99Z</time></trkpt><trkpt lat="45.4061067" lon="9.1378883"><ele>106.0</ele><time>2026-04-18T08:28:21.99Z</time></trkpt><trkpt lat="45.405985" lon="9.1378817"><ele>106.0</ele><time>2026-04-18T08:28:22.99Z</time></trkpt><trkpt lat="45.405875" lon="9.137875"><ele>106.0</ele><time>2026-04-18T08:28:23.991Z</time></trkpt><trkpt lat="45.4057733" lon="9.1378567"><ele>106.0</ele><time>2026-04-18T08:28:24.99Z</time></trkpt><trkpt lat="45.405685" lon="9.1378233"><ele>106.0</ele><time>2026-04-18T08:28:25.99Z</time></trkpt><trkpt lat="45.4055967" lon="9.1377783"><ele>106.00000000000001</ele><time>2026-04-18T08:28:26.99Z</time></trkpt><trkpt lat="45.4055283" lon="9.1377267"><ele>106.0</ele><time>2026-04-18T08:28:27.99Z</time></trkpt><trkpt lat="45.4054567" lon="9.137665"><ele>106.0</ele><time>2026-04-18T08:28:28.99Z</time></trkpt><trkpt lat="45.4054033" lon="9.13758"><ele>106.0</ele><time>2026-04-18T08:28:29.99Z</time></trkpt><trkpt lat="45.4053667" lon="9.1374733"><ele>106.00000000000001</ele><time>2026-04-18T08:28:30.99Z</time></trkpt><trkpt lat="45.4053533" lon="9.137355"><ele>106.0</ele><time>2026-04-18T08:28:31.99Z</time></trkpt><trkpt lat="45.405355" lon="9.1372233"><ele>105.8</ele><time>2026-04-18T08:28:32.991Z</time></trkpt><trkpt lat="45.4053683" lon="9.1370883"><ele>105.6</ele><time>2026-04-18T08:28:33.99Z</time></trkpt><trkpt lat="45.4053817" lon="9.1369483"><ele>105.4</ele><time>2026-04-18T08:28:34.99Z</time></trkpt><trkpt lat="45.405385" lon="9.1368033"><ele>105.2</ele><time>2026-04-18T08:28:35.99Z</time></trkpt><trkpt lat="45.4054" lon="9.1366367"><ele>105.0</ele><time>2026-04-18T08:28:36.99Z</time></trkpt><trkpt lat="45.4054183" lon="9.1364533"><ele>105.0</ele><time>2026-04-18T08:28:37.99Z</time></trkpt><trkpt lat="45.4054217" lon="9.136275"><ele>105.0</ele><time>2026-04-18T08:28:38.99Z</time></trkpt><trkpt lat="45.40544" lon="9.1360933"><ele>105.0</ele><time>2026-04-18T08:28:39.99Z</time></trkpt><trkpt lat="45.4054517" lon="9.13592"><ele>105.0</ele><time>2026-04-18T08:28:40.99Z</time></trkpt><trkpt lat="45.40546" lon="9.13576"><ele>105.0</ele><time>2026-04-18T08:28:41.99Z</time></trkpt><trkpt lat="45.40547" lon="9.1356"><ele>105.0</ele><time>2026-04-18T08:28:42.99Z</time></trkpt><trkpt lat="45.4054733" lon="9.13544"><ele>105.0</ele><time>2026-04-18T08:28:43.99Z</time></trkpt><trkpt lat="45.40548" lon="9.13529"><ele>105.0</ele><time>2026-04-18T08:28:44.99Z</time></trkpt><trkpt lat="45.40548" lon="9.1351583"><ele>105.0</ele><time>2026-04-18T08:28:45.99Z</time></trkpt><trkpt lat="45.405475" lon="9.13504"><ele>105.0</ele><time>2026-04-18T08:28:46.99Z</time></trkpt><trkpt lat="45.40548" lon="9.134925"><ele>105.0</ele><time>2026-04-18T08:28:47.99Z</time></trkpt><trkpt lat="45.405495" lon="9.1348167"><ele>105.0</ele><time>2026-04-18T08:28:48.99Z</time></trkpt><trkpt lat="45.4055117" lon="9.1347033"><ele>105.0</ele><time>2026-04-18T08:28:49.99Z</time></trkpt><trkpt lat="45.4055117" lon="9.1345733"><ele>105.0</ele><time>2026-04-18T08:28:50.99Z</time></trkpt><trkpt lat="45.405495" lon="9.1344433"><ele>105.0</ele><time>2026-04-18T08:28:51.99Z</time></trkpt><trkpt lat="45.4054717" lon="9.1343133"><ele>105.6</ele><time>2026-04-18T08:28:52.99Z</time></trkpt><trkpt lat="45.405455" lon="9.134175"><ele>106.2</ele><time>2026-04-18T08:28:53.99Z</time></trkpt><trkpt lat="45.4054467" lon="9.1340317"><ele>106.80000000000001</ele><time>2026-04-18T08:28:54.99Z</time></trkpt><trkpt lat="45.40545" lon="9.1338867"><ele>107.4</ele><time>2026-04-18T08:28:55.991Z</time></trkpt><trkpt lat="45.4054467" lon="9.1337433"><ele>108.0</ele><time>2026-04-18T08:28:56.99Z</time></trkpt><trkpt lat="45.4054467" lon="9.133595"><ele>108.0</ele><time>2026-04-18T08:28:57.99Z</time></trkpt><trkpt lat="45.4054517" lon="9.13345"><ele>108.0</ele><time>2026-04-18T08:28:58.99Z</time></trkpt><trkpt lat="45.4054567" lon="9.1333233"><ele>108.0</ele><time>2026-04-18T08:28:59.99Z</time></trkpt><trkpt lat="45.4054683" lon="9.1332083"><ele>108.0</ele><time>2026-04-18T08:29:00.99Z</time></trkpt><trkpt lat="45.40548" lon="9.1330533"><ele>108.0</ele><time>2026-04-18T08:29:02.99Z</time></trkpt><trkpt lat="45.4054833" lon="9.13296"><ele>108.0</ele><time>2026-04-18T08:29:05.99Z</time></trkpt><trkpt lat="45.405415" lon="9.13291"><ele>108.0</ele><time>2026-04-18T08:29:12.99Z</time></trkpt><trkpt lat="45.4052883" lon="9.1329233"><ele>108.00000000000001</ele><time>2026-04-18T08:29:14.989Z</time></trkpt><trkpt lat="45.4052033" lon="9.1329233"><ele>108.00000000000001</ele><time>2026-04-18T08:29:15.989Z</time></trkpt><trkpt lat="45.4051133" lon="9.13292"><ele>108.0</ele><time>2026-04-18T08:29:16.989Z</time></trkpt><trkpt lat="45.4050167" lon="9.1329"><ele>108.0</ele><time>2026-04-18T08:29:17.989Z</time></trkpt><trkpt lat="45.4049233" lon="9.132875"><ele>108.0</ele><time>2026-04-18T08:29:18.989Z</time></trkpt><trkpt lat="45.4048467" lon="9.1328267"><ele>108.0</ele><time>2026-04-18T08:29:19.989Z</time></trkpt><trkpt lat="45.404785" lon="9.1327633"><ele>108.0</ele><time>2026-04-18T08:29:20.989Z</time></trkpt><trkpt lat="45.40474" lon="9.1326967"><ele>108.0</ele><time>2026-04-18T08:29:21.989Z</time></trkpt><trkpt lat="45.404725" lon="9.1325217"><ele>108.0</ele><time>2026-04-18T08:29:23.989Z</time></trkpt><trkpt lat="45.4047233" lon="9.1324033"><ele>108.0</ele><time>2026-04-18T08:29:24.989Z</time></trkpt><trkpt lat="45.4047133" lon="9.132275"><ele>108.0</ele><time>2026-04-18T08:29:25.989Z</time></trkpt><trkpt lat="45.4047167" lon="9.13214"><ele>108.00000000000001</ele><time>2026-04-18T08:29:26.989Z</time></trkpt><trkpt lat="45.4047217" lon="9.13203"><ele>108.00000000000001</ele><time>2026-04-18T08:29:27.99Z</time></trkpt><trkpt lat="45.4046967" lon="9.1318967"><ele>108.0</ele><time>2026-04-18T08:29:29.989Z</time></trkpt><trkpt lat="45.4045967" lon="9.131885"><ele>108.0</ele><time>2026-04-18T08:29:31.989Z</time></trkpt><trkpt lat="45.404495" lon="9.131925"><ele>108.0</ele><time>2026-04-18T08:29:33.989Z</time></trkpt><trkpt lat="45.4044317" lon="9.1318633"><ele>108.0</ele><time>2026-04-18T08:29:35.989Z</time></trkpt><trkpt lat="45.4043833" lon="9.1317"><ele>108.0</ele><time>2026-04-18T08:29:37.989Z</time></trkpt><trkpt lat="45.404365" lon="9.1316017"><ele>108.0</ele><time>2026-04-18T08:29:38.989Z</time></trkpt><trkpt lat="45.404335" lon="9.1315017"><ele>108.0</ele><time>2026-04-18T08:29:39.989Z</time></trkpt><trkpt lat="45.40431" lon="9.131395"><ele>108.0</ele><time>2026-04-18T08:29:40.989Z</time></trkpt><trkpt lat="45.4042917" lon="9.1312833"><ele>108.0</ele><time>2026-04-18T08:29:41.989Z</time></trkpt><trkpt lat="45.40427" lon="9.13119"><ele>108.00000000000001</ele><time>2026-04-18T08:29:42.989Z</time></trkpt><trkpt lat="45.40423" lon="9.131045"><ele>108.00000000000001</ele><time>2026-04-18T08:29:44.989Z</time></trkpt><trkpt lat="45.4041317" lon="9.1310117"><ele>108.0</ele><time>2026-04-18T08:29:46.989Z</time></trkpt><trkpt lat="45.404055" lon="9.1310433"><ele>108.0</ele><time>2026-04-18T08:29:47.989Z</time></trkpt><trkpt lat="45.4039517" lon="9.1310917"><ele>108.0</ele><time>2026-04-18T08:29:48.989Z</time></trkpt><trkpt lat="45.4038317" lon="9.1311517"><ele>108.0</ele><time>2026-04-18T08:29:49.989Z</time></trkpt><trkpt lat="45.4037183" lon="9.1312267"><ele>108.0</ele><time>2026-04-18T08:29:50.989Z</time></trkpt><trkpt lat="45.4035933" lon="9.13129"><ele>108.0</ele><time>2026-04-18T08:29:51.989Z</time></trkpt><trkpt lat="45.4034867" lon="9.131345"><ele>108.0</ele><time>2026-04-18T08:29:52.989Z</time></trkpt><trkpt lat="45.4034033" lon="9.1313817"><ele>108.00000000000001</ele><time>2026-04-18T08:29:53.989Z</time></trkpt><trkpt lat="45.403325" lon="9.131415"><ele>108.00000000000001</ele><time>2026-04-18T08:29:54.989Z</time></trkpt><trkpt lat="45.4032133" lon="9.13142"><ele>108.0</ele><time>2026-04-18T08:29:56.99Z</time></trkpt><trkpt lat="45.4031" lon="9.131345"><ele>108.0</ele><time>2026-04-18T08:29:59.989Z</time></trkpt><trkpt lat="45.4030367" lon="9.13118"><ele>108.0</ele><time>2026-04-18T08:30:01.989Z</time></trkpt><trkpt lat="45.40302" lon="9.1310733"><ele>108.0</ele><time>2026-04-18T08:30:02.989Z</time></trkpt><trkpt lat="45.4030167" lon="9.1309583"><ele>108.0</ele><time>2026-04-18T08:30:03.989Z</time></trkpt><trkpt lat="45.4030117" lon="9.1308567"><ele>108.0</ele><time>2026-04-18T08:30:04.989Z</time></trkpt><trkpt lat="45.4030033" lon="9.13073"><ele>108.0</ele><time>2026-04-18T08:30:05.989Z</time></trkpt><trkpt lat="45.4029867" lon="9.1305817"><ele>108.0</ele><time>2026-04-18T08:30:06.989Z</time></trkpt><trkpt lat="45.4029783" lon="9.1304233"><ele>108.0</ele><time>2026-04-18T08:30:07.989Z</time></trkpt><trkpt lat="45.4029767" lon="9.1302583"><ele>108.00000000000001</ele><time>2026-04-18T08:30:08.989Z</time></trkpt><trkpt lat="45.402975" lon="9.1301167"><ele>108.00000000000001</ele><time>2026-04-18T08:30:09.989Z</time></trkpt><trkpt lat="45.402975" lon="9.129985"><ele>108.0</ele><time>2026-04-18T08:30:10.989Z</time></trkpt><trkpt lat="45.40297" lon="9.1298683"><ele>108.0</ele><time>2026-04-18T08:30:11.989Z</time></trkpt><trkpt lat="45.4029633" lon="9.1297617"><ele>108.0</ele><time>2026-04-18T08:30:12.989Z</time></trkpt><trkpt lat="45.4029683" lon="9.1296483"><ele>108.0</ele><time>2026-04-18T08:30:13.989Z</time></trkpt><trkpt lat="45.4029833" lon="9.1295333"><ele>108.0</ele><time>2026-04-18T08:30:14.989Z</time></trkpt><trkpt lat="45.4030183" lon="9.129415"><ele>108.0</ele><time>2026-04-18T08:30:15.989Z</time></trkpt><trkpt lat="45.403065" lon="9.1293217"><ele>108.0</ele><time>2026-04-18T08:30:16.99Z</time></trkpt><trkpt lat="45.4031217" lon="9.129245"><ele>108.0</ele><time>2026-04-18T08:30:17.989Z</time></trkpt><trkpt lat="45.4031933" lon="9.1291767"><ele>108.0</ele><time>2026-04-18T08:30:18.989Z</time></trkpt><trkpt lat="45.4032767" lon="9.1291233"><ele>108.00000000000001</ele><time>2026-04-18T08:30:19.989Z</time></trkpt><trkpt lat="45.4033683" lon="9.1290617"><ele>108.00000000000001</ele><time>2026-04-18T08:30:20.989Z</time></trkpt><trkpt lat="45.4034683" lon="9.1289833"><ele>108.0</ele><time>2026-04-18T08:30:21.989Z</time></trkpt><trkpt lat="45.403575" lon="9.1288917"><ele>108.0</ele><time>2026-04-18T08:30:22.989Z</time></trkpt><trkpt lat="45.4036817" lon="9.1288017"><ele>108.0</ele><time>2026-04-18T08:30:23.989Z</time></trkpt><trkpt lat="45.4037967" lon="9.1287233"><ele>108.0</ele><time>2026-04-18T08:30:24.989Z</time></trkpt><trkpt lat="45.4039217" lon="9.1286467"><ele>108.0</ele><time>2026-04-18T08:30:25.989Z</time></trkpt><trkpt lat="45.4040617" lon="9.1285733"><ele>108.0</ele><time>2026-04-18T08:30:26.989Z</time></trkpt><trkpt lat="45.4041983" lon="9.1284883"><ele>108.0</ele><time>2026-04-18T08:30:27.989Z</time></trkpt><trkpt lat="45.4043417" lon="9.12841"><ele>108.0</ele><time>2026-04-18T08:30:28.989Z</time></trkpt><trkpt lat="45.4044633" lon="9.1283333"><ele>108.0</ele><time>2026-04-18T08:30:29.989Z</time></trkpt><trkpt lat="45.40459" lon="9.12826"><ele>108.0</ele><time>2026-04-18T08:30:30.989Z</time></trkpt><trkpt lat="45.4047167" lon="9.1281783"><ele>108.25</ele><time>2026-04-18T08:30:31.989Z</time></trkpt><trkpt lat="45.4048417" lon="9.1281017"><ele>108.5</ele><time>2026-04-18T08:30:32.989Z</time></trkpt><trkpt lat="45.4049633" lon="9.128025"><ele>108.75</ele><time>2026-04-18T08:30:33.989Z</time></trkpt><trkpt lat="45.405085" lon="9.1279483"><ele>109.0</ele><time>2026-04-18T08:30:34.989Z</time></trkpt><trkpt lat="45.4052067" lon="9.12787"><ele>109.0</ele><time>2026-04-18T08:30:35.989Z</time></trkpt><trkpt lat="45.4053267" lon="9.12779"><ele>109.0</ele><time>2026-04-18T08:30:36.989Z</time></trkpt><trkpt lat="45.4054433" lon="9.1277033"><ele>109.0</ele><time>2026-04-18T08:30:37.989Z</time></trkpt><trkpt lat="45.4055633" lon="9.1276267"><ele>109.0</ele><time>2026-04-18T08:30:38.989Z</time></trkpt><trkpt lat="45.4056867" lon="9.1275617"><ele>109.0</ele><time>2026-04-18T08:30:39.989Z</time></trkpt><trkpt lat="45.4058067" lon="9.1274867"><ele>109.0</ele><time>2026-04-18T08:30:40.989Z</time></trkpt><trkpt lat="45.405915" lon="9.127415"><ele>109.0</ele><time>2026-04-18T08:30:41.989Z</time></trkpt><trkpt lat="45.40603" lon="9.1273533"><ele>109.0</ele><time>2026-04-18T08:30:42.989Z</time></trkpt><trkpt lat="45.4061417" lon="9.1273083"><ele>109.0</ele><time>2026-04-18T08:30:43.989Z</time></trkpt><trkpt lat="45.4062633" lon="9.1272667"><ele>109.0</ele><time>2026-04-18T08:30:44.989Z</time></trkpt><trkpt lat="45.4063967" lon="9.127235"><ele>109.0</ele><time>2026-04-18T08:30:45.989Z</time></trkpt><trkpt lat="45.4065283" lon="9.1272167"><ele>109.0</ele><time>2026-04-18T08:30:46.989Z</time></trkpt><trkpt lat="45.4066633" lon="9.1272033"><ele>109.25</ele><time>2026-04-18T08:30:47.99Z</time></trkpt><trkpt lat="45.4067917" lon="9.127205"><ele>109.5</ele><time>2026-04-18T08:30:48.989Z</time></trkpt><trkpt lat="45.406925" lon="9.1272167"><ele>109.75</ele><time>2026-04-18T08:30:49.989Z</time></trkpt><trkpt lat="45.4070533" lon="9.12722"><ele>110.0</ele><time>2026-04-18T08:30:50.989Z</time></trkpt><trkpt lat="45.4071833" lon="9.1272217"><ele>110.0</ele><time>2026-04-18T08:30:51.989Z</time></trkpt><trkpt lat="45.4073167" lon="9.1272217"><ele>110.0</ele><time>2026-04-18T08:30:52.989Z</time></trkpt><trkpt lat="45.4074417" lon="9.1272267"><ele>110.0</ele><time>2026-04-18T08:30:53.99Z</time></trkpt><trkpt lat="45.407565" lon="9.1272333"><ele>110.0</ele><time>2026-04-18T08:30:54.989Z</time></trkpt><trkpt lat="45.407685" lon="9.1272383"><ele>110.0</ele><time>2026-04-18T08:30:55.989Z</time></trkpt><trkpt lat="45.4078183" lon="9.12724"><ele>110.0</ele><time>2026-04-18T08:30:56.989Z</time></trkpt><trkpt lat="45.407965" lon="9.1272467"><ele>110.0</ele><time>2026-04-18T08:30:57.989Z</time></trkpt><trkpt lat="45.4081017" lon="9.1272583"><ele>110.0</ele><time>2026-04-18T08:30:58.989Z</time></trkpt><trkpt lat="45.4082433" lon="9.1272533"><ele>109.6</ele><time>2026-04-18T08:30:59.989Z</time></trkpt><trkpt lat="45.4083583" lon="9.1272433"><ele>109.2</ele><time>2026-04-18T08:31:00.989Z</time></trkpt><trkpt lat="45.40847" lon="9.127235"><ele>108.80000000000001</ele><time>2026-04-18T08:31:01.989Z</time></trkpt><trkpt lat="45.4085717" lon="9.127235"><ele>108.4</ele><time>2026-04-18T08:31:02.989Z</time></trkpt><trkpt lat="45.408675" lon="9.12724"><ele>108.0</ele><time>2026-04-18T08:31:03.989Z</time></trkpt><trkpt lat="45.408755" lon="9.12725"><ele>108.0</ele><time>2026-04-18T08:31:04.989Z</time></trkpt><trkpt lat="45.4088267" lon="9.1272467"><ele>108.00000000000001</ele><time>2026-04-18T08:31:05.989Z</time></trkpt><trkpt lat="45.40893" lon="9.1272483"><ele>108.00000000000001</ele><time>2026-04-18T08:31:07.989Z</time></trkpt><trkpt lat="45.4090083" lon="9.1273017"><ele>108.0</ele><time>2026-04-18T08:31:09.989Z</time></trkpt><trkpt lat="45.409105" lon="9.1274083"><ele>108.0</ele><time>2026-04-18T08:31:11.989Z</time></trkpt><trkpt lat="45.4092033" lon="9.1273967"><ele>107.80000000000001</ele><time>2026-04-18T08:31:13.989Z</time></trkpt><trkpt lat="45.4092533" lon="9.1272467"><ele>107.60000000000001</ele><time>2026-04-18T08:31:15.989Z</time></trkpt><trkpt lat="45.4092117" lon="9.1270867"><ele>107.39999999999999</ele><time>2026-04-18T08:31:17.989Z</time></trkpt><trkpt lat="45.409185" lon="9.126995"><ele>107.19999999999999</ele><time>2026-04-18T08:31:18.989Z</time></trkpt><trkpt lat="45.40917" lon="9.12682"><ele>107.0</ele><time>2026-04-18T08:31:20.989Z</time></trkpt><trkpt lat="45.40917" lon="9.1267183"><ele>107.0</ele><time>2026-04-18T08:31:21.989Z</time></trkpt><trkpt lat="45.4091667" lon="9.1265967"><ele>106.99999999999999</ele><time>2026-04-18T08:31:22.989Z</time></trkpt><trkpt lat="45.4091567" lon="9.1264617"><ele>106.99999999999999</ele><time>2026-04-18T08:31:23.989Z</time></trkpt><trkpt lat="45.4091567" lon="9.126285"><ele>107.0</ele><time>2026-04-18T08:31:24.989Z</time></trkpt><trkpt lat="45.4091633" lon="9.1261067"><ele>107.0</ele><time>2026-04-18T08:31:25.989Z</time></trkpt><trkpt lat="45.4091733" lon="9.12591"><ele>107.25</ele><time>2026-04-18T08:31:26.989Z</time></trkpt><trkpt lat="45.4091783" lon="9.125715"><ele>107.5</ele><time>2026-04-18T08:31:27.989Z</time></trkpt><trkpt lat="45.4091833" lon="9.12552"><ele>107.75</ele><time>2026-04-18T08:31:28.989Z</time></trkpt><trkpt lat="45.40918" lon="9.125315"><ele>108.0</ele><time>2026-04-18T08:31:29.989Z</time></trkpt><trkpt lat="45.4091783" lon="9.1250933"><ele>107.66666666666666</ele><time>2026-04-18T08:31:30.989Z</time></trkpt><trkpt lat="45.4091767" lon="9.12486"><ele>107.33333333333333</ele><time>2026-04-18T08:31:31.989Z</time></trkpt><trkpt lat="45.4091867" lon="9.1246183"><ele>107.0</ele><time>2026-04-18T08:31:32.989Z</time></trkpt><trkpt lat="45.409195" lon="9.1243667"><ele>107.0</ele><time>2026-04-18T08:31:33.989Z</time></trkpt><trkpt lat="45.4092017" lon="9.1241117"><ele>107.0</ele><time>2026-04-18T08:31:34.989Z</time></trkpt><trkpt lat="45.409205" lon="9.123865"><ele>107.0</ele><time>2026-04-18T08:31:35.989Z</time></trkpt><trkpt lat="45.4092083" lon="9.1236267"><ele>108.0</ele><time>2026-04-18T08:31:36.989Z</time></trkpt><trkpt lat="45.4092117" lon="9.1233917"><ele>109.0</ele><time>2026-04-18T08:31:37.989Z</time></trkpt><trkpt lat="45.40921" lon="9.1231633"><ele>110.0</ele><time>2026-04-18T08:31:38.989Z</time></trkpt><trkpt lat="45.40922" lon="9.1229417"><ele>110.33333333333333</ele><time>2026-04-18T08:31:39.989Z</time></trkpt><trkpt lat="45.4092217" lon="9.1227083"><ele>110.66666666666666</ele><time>2026-04-18T08:31:40.989Z</time></trkpt><trkpt lat="45.4092167" lon="9.12248"><ele>111.0</ele><time>2026-04-18T08:31:41.989Z</time></trkpt><trkpt lat="45.409205" lon="9.1222417"><ele>111.0</ele><time>2026-04-18T08:31:42.989Z</time></trkpt><trkpt lat="45.4092133" lon="9.12201"><ele>111.0</ele><time>2026-04-18T08:31:43.989Z</time></trkpt><trkpt lat="45.4092183" lon="9.1217767"><ele>111.0</ele><time>2026-04-18T08:31:44.989Z</time></trkpt><trkpt lat="45.4092267" lon="9.1215533"><ele>110.0</ele><time>2026-04-18T08:31:45.989Z</time></trkpt><trkpt lat="45.40923" lon="9.1213383"><ele>109.0</ele><time>2026-04-18T08:31:46.989Z</time></trkpt><trkpt lat="45.409235" lon="9.12112"><ele>108.0</ele><time>2026-04-18T08:31:47.989Z</time></trkpt><trkpt lat="45.4092417" lon="9.1208983"><ele>108.0</ele><time>2026-04-18T08:31:48.989Z</time></trkpt><trkpt lat="45.4092383" lon="9.120675"><ele>108.0</ele><time>2026-04-18T08:31:49.989Z</time></trkpt><trkpt lat="45.4092433" lon="9.1204433"><ele>108.0</ele><time>2026-04-18T08:31:50.989Z</time></trkpt><trkpt lat="45.409245" lon="9.1202167"><ele>108.0</ele><time>2026-04-18T08:31:51.989Z</time></trkpt><trkpt lat="45.409235" lon="9.119995"><ele>108.0</ele><time>2026-04-18T08:31:52.989Z</time></trkpt><trkpt lat="45.4092233" lon="9.1197717"><ele>108.0</ele><time>2026-04-18T08:31:53.989Z</time></trkpt><trkpt lat="45.4092117" lon="9.1195467"><ele>108.25</ele><time>2026-04-18T08:31:54.989Z</time></trkpt><trkpt lat="45.4092083" lon="9.11933"><ele>108.5</ele><time>2026-04-18T08:31:55.989Z</time></trkpt><trkpt lat="45.4092083" lon="9.1191117"><ele>108.75</ele><time>2026-04-18T08:31:56.989Z</time></trkpt><trkpt lat="45.4092" lon="9.1189083"><ele>109.0</ele><time>2026-04-18T08:31:57.989Z</time></trkpt><trkpt lat="45.4091933" lon="9.1187033"><ele>109.0</ele><time>2026-04-18T08:31:58.989Z</time></trkpt><trkpt lat="45.40918" lon="9.118525"><ele>109.0</ele><time>2026-04-18T08:31:59.989Z</time></trkpt><trkpt lat="45.4091717" lon="9.11836"><ele>109.0</ele><time>2026-04-18T08:32:00.989Z</time></trkpt><trkpt lat="45.4091617" lon="9.1182117"><ele>109.0</ele><time>2026-04-18T08:32:01.989Z</time></trkpt><trkpt lat="45.4091583" lon="9.11809"><ele>109.0</ele><time>2026-04-18T08:32:02.989Z</time></trkpt><trkpt lat="45.4091617" lon="9.118"><ele>109.00000000000001</ele><time>2026-04-18T08:32:03.989Z</time></trkpt><trkpt lat="45.4091933" lon="9.1179183"><ele>109.0</ele><time>2026-04-18T08:32:04.989Z</time></trkpt><trkpt lat="45.4092217" lon="9.1178317"><ele>109.0</ele><time>2026-04-18T08:32:05.99Z</time></trkpt><trkpt lat="45.4092367" lon="9.11765"><ele>109.0</ele><time>2026-04-18T08:32:07.989Z</time></trkpt><trkpt lat="45.4092117" lon="9.11755"><ele>109.00000000000001</ele><time>2026-04-18T08:32:08.989Z</time></trkpt><trkpt lat="45.4091683" lon="9.1174433"><ele>109.0</ele><time>2026-04-18T08:32:09.989Z</time></trkpt><trkpt lat="45.4091267" lon="9.1172917"><ele>108.75</ele><time>2026-04-18T08:32:10.989Z</time></trkpt><trkpt lat="45.409115" lon="9.117115"><ele>108.5</ele><time>2026-04-18T08:32:11.989Z</time></trkpt><trkpt lat="45.409105" lon="9.1169267"><ele>108.25</ele><time>2026-04-18T08:32:12.989Z</time></trkpt><trkpt lat="45.4090967" lon="9.11672"><ele>108.0</ele><time>2026-04-18T08:32:13.989Z</time></trkpt><trkpt lat="45.40908" lon="9.1165167"><ele>108.5</ele><time>2026-04-18T08:32:14.989Z</time></trkpt><trkpt lat="45.4090717" lon="9.1163133"><ele>109.0</ele><time>2026-04-18T08:32:15.989Z</time></trkpt><trkpt lat="45.4090533" lon="9.1161117"><ele>109.5</ele><time>2026-04-18T08:32:16.99Z</time></trkpt><trkpt lat="45.40904" lon="9.1158967"><ele>110.0</ele><time>2026-04-18T08:32:17.99Z</time></trkpt><trkpt lat="45.4090233" lon="9.1156783"><ele>110.0</ele><time>2026-04-18T08:32:18.989Z</time></trkpt><trkpt lat="45.4090083" lon="9.1154517"><ele>110.0</ele><time>2026-04-18T08:32:19.989Z</time></trkpt><trkpt lat="45.40898" lon="9.1152283"><ele>110.0</ele><time>2026-04-18T08:32:20.989Z</time></trkpt><trkpt lat="45.4089317" lon="9.115005"><ele>109.66666666666666</ele><time>2026-04-18T08:32:21.989Z</time></trkpt><trkpt lat="45.4088617" lon="9.1147917"><ele>109.33333333333334</ele><time>2026-04-18T08:32:22.99Z</time></trkpt><trkpt lat="45.4087633" lon="9.114605"><ele>109.0</ele><time>2026-04-18T08:32:23.989Z</time></trkpt><trkpt lat="45.4086383" lon="9.114425"><ele>109.0</ele><time>2026-04-18T08:32:24.989Z</time></trkpt><trkpt lat="45.408505" lon="9.1142617"><ele>109.0</ele><time>2026-04-18T08:32:25.989Z</time></trkpt><trkpt lat="45.40837" lon="9.114105"><ele>109.0</ele><time>2026-04-18T08:32:26.989Z</time></trkpt><trkpt lat="45.4082267" lon="9.1139433"><ele>109.66666666666667</ele><time>2026-04-18T08:32:27.989Z</time></trkpt><trkpt lat="45.4080733" lon="9.11378"><ele>110.33333333333334</ele><time>2026-04-18T08:32:28.989Z</time></trkpt><trkpt lat="45.4079317" lon="9.1136133"><ele>111.0</ele><time>2026-04-18T08:32:29.989Z</time></trkpt><trkpt lat="45.4077817" lon="9.113445"><ele>111.0</ele><time>2026-04-18T08:32:30.989Z</time></trkpt><trkpt lat="45.4076317" lon="9.1132717"><ele>111.0</ele><time>2026-04-18T08:32:31.99Z</time></trkpt><trkpt lat="45.4074833" lon="9.113105"><ele>111.0</ele><time>2026-04-18T08:32:32.989Z</time></trkpt><trkpt lat="45.40734" lon="9.112935"><ele>111.0</ele><time>2026-04-18T08:32:33.989Z</time></trkpt><trkpt lat="45.407185" lon="9.1127583"><ele>111.0</ele><time>2026-04-18T08:32:34.989Z</time></trkpt><trkpt lat="45.4070433" lon="9.1125883"><ele>111.0</ele><time>2026-04-18T08:32:35.989Z</time></trkpt><trkpt lat="45.4069" lon="9.1124183"><ele>111.0</ele><time>2026-04-18T08:32:36.989Z</time></trkpt><trkpt lat="45.40675" lon="9.11226"><ele>111.0</ele><time>2026-04-18T08:32:37.989Z</time></trkpt><trkpt lat="45.4066117" lon="9.112095"><ele>111.0</ele><time>2026-04-18T08:32:38.99Z</time></trkpt><trkpt lat="45.406465" lon="9.11192"><ele>110.66666666666666</ele><time>2026-04-18T08:32:39.989Z</time></trkpt><trkpt lat="45.4063083" lon="9.11174"><ele>110.33333333333333</ele><time>2026-04-18T08:32:40.989Z</time></trkpt><trkpt lat="45.40615" lon="9.111555"><ele>110.0</ele><time>2026-04-18T08:32:41.989Z</time></trkpt><trkpt lat="45.4059933" lon="9.11137"><ele>109.0</ele><time>2026-04-18T08:32:42.989Z</time></trkpt><trkpt lat="45.40584" lon="9.1111933"><ele>108.0</ele><time>2026-04-18T08:32:43.989Z</time></trkpt><trkpt lat="45.40569" lon="9.111025"><ele>107.0</ele><time>2026-04-18T08:32:44.989Z</time></trkpt><trkpt lat="45.4055467" lon="9.1108733"><ele>106.66666666666666</ele><time>2026-04-18T08:32:45.989Z</time></trkpt><trkpt lat="45.4054233" lon="9.1107333"><ele>106.33333333333334</ele><time>2026-04-18T08:32:46.989Z</time></trkpt><trkpt lat="45.4053033" lon="9.110575"><ele>106.0</ele><time>2026-04-18T08:32:47.989Z</time></trkpt><trkpt lat="45.4051917" lon="9.110435"><ele>106.0</ele><time>2026-04-18T08:32:48.989Z</time></trkpt><trkpt lat="45.4050817" lon="9.1103117"><ele>106.0</ele><time>2026-04-18T08:32:49.989Z</time></trkpt><trkpt lat="45.4049767" lon="9.110205"><ele>106.0</ele><time>2026-04-18T08:32:50.989Z</time></trkpt><trkpt lat="45.4048817" lon="9.1101067"><ele>106.0</ele><time>2026-04-18T08:32:51.989Z</time></trkpt><trkpt lat="45.4047867" lon="9.110005"><ele>106.33333333333334</ele><time>2026-04-18T08:32:52.989Z</time></trkpt><trkpt lat="45.4047083" lon="9.1099067"><ele>106.66666666666667</ele><time>2026-04-18T08:32:53.989Z</time></trkpt><trkpt lat="45.40464" lon="9.1098233"><ele>107.0</ele><time>2026-04-18T08:32:54.989Z</time></trkpt><trkpt lat="45.4045933" lon="9.109735"><ele>107.33333333333334</ele><time>2026-04-18T08:32:55.989Z</time></trkpt><trkpt lat="45.4045783" lon="9.109585"><ele>107.66666666666667</ele><time>2026-04-18T08:32:57.989Z</time></trkpt><trkpt lat="45.4046217" lon="9.10952"><ele>108.0</ele><time>2026-04-18T08:32:58.989Z</time></trkpt><trkpt lat="45.4047" lon="9.1094783"><ele>108.0</ele><time>2026-04-18T08:32:59.989Z</time></trkpt><trkpt lat="45.404805" lon="9.1094617"><ele>108.0</ele><time>2026-04-18T08:33:00.989Z</time></trkpt><trkpt lat="45.4049333" lon="9.1094617"><ele>108.0</ele><time>2026-04-18T08:33:01.989Z</time></trkpt><trkpt lat="45.405065" lon="9.109485"><ele>108.0</ele><time>2026-04-18T08:33:02.989Z</time></trkpt><trkpt lat="45.4051967" lon="9.1095033"><ele>108.0</ele><time>2026-04-18T08:33:03.989Z</time></trkpt><trkpt lat="45.4053317" lon="9.109515"><ele>108.0</ele><time>2026-04-18T08:33:04.989Z</time></trkpt><trkpt lat="45.4054733" lon="9.1095233"><ele>108.0</ele><time>2026-04-18T08:33:05.989Z</time></trkpt><trkpt lat="45.405615" lon="9.1095183"><ele>108.0</ele><time>2026-04-18T08:33:06.989Z</time></trkpt><trkpt lat="45.4057517" lon="9.1095217"><ele>108.0</ele><time>2026-04-18T08:33:07.989Z</time></trkpt><trkpt lat="45.40589" lon="9.1095217"><ele>108.0</ele><time>2026-04-18T08:33:08.989Z</time></trkpt><trkpt lat="45.4060267" lon="9.1095067"><ele>108.0</ele><time>2026-04-18T08:33:09.989Z</time></trkpt><trkpt lat="45.406165" lon="9.1094733"><ele>108.0</ele><time>2026-04-18T08:33:10.989Z</time></trkpt><trkpt lat="45.4062933" lon="9.1094367"><ele>108.5</ele><time>2026-04-18T08:33:11.989Z</time></trkpt><trkpt lat="45.4064233" lon="9.109395"><ele>109.0</ele><time>2026-04-18T08:33:12.989Z</time></trkpt><trkpt lat="45.4065483" lon="9.1093667"><ele>109.5</ele><time>2026-04-18T08:33:13.989Z</time></trkpt><trkpt lat="45.406665" lon="9.1093317"><ele>110.0</ele><time>2026-04-18T08:33:14.989Z</time></trkpt><trkpt lat="45.4067783" lon="9.1092933"><ele>110.0</ele><time>2026-04-18T08:33:15.989Z</time></trkpt><trkpt lat="45.4068867" lon="9.1092533"><ele>110.0</ele><time>2026-04-18T08:33:16.989Z</time></trkpt><trkpt lat="45.40699" lon="9.1092183"><ele>110.0</ele><time>2026-04-18T08:33:17.989Z</time></trkpt><trkpt lat="45.4070783" lon="9.1091817"><ele>110.0</ele><time>2026-04-18T08:33:18.989Z</time></trkpt><trkpt lat="45.4071717" lon="9.1091417"><ele>110.0</ele><time>2026-04-18T08:33:19.989Z</time></trkpt><trkpt lat="45.4072483" lon="9.1090933"><ele>109.8</ele><time>2026-04-18T08:33:20.989Z</time></trkpt><trkpt lat="45.4073217" lon="9.1090517"><ele>109.6</ele><time>2026-04-18T08:33:21.989Z</time></trkpt><trkpt lat="45.4074283" lon="9.1089567"><ele>109.4</ele><time>2026-04-18T08:33:23.989Z</time></trkpt><trkpt lat="45.4074917" lon="9.1089217"><ele>109.2</ele><time>2026-04-18T08:33:24.989Z</time></trkpt><trkpt lat="45.407555" lon="9.1088767"><ele>109.0</ele><time>2026-04-18T08:33:25.989Z</time></trkpt><trkpt lat="45.4076633" lon="9.1088217"><ele>109.0</ele><time>2026-04-18T08:33:27.989Z</time></trkpt><trkpt lat="45.4077883" lon="9.1087583"><ele>109.0</ele><time>2026-04-18T08:33:29.989Z</time></trkpt><trkpt lat="45.4078533" lon="9.10873"><ele>109.0</ele><time>2026-04-18T08:33:30.989Z</time></trkpt><trkpt lat="45.407925" lon="9.1086983"><ele>109.0</ele><time>2026-04-18T08:33:31.989Z</time></trkpt><trkpt lat="45.4080117" lon="9.1086783"><ele>109.0</ele><time>2026-04-18T08:33:32.989Z</time></trkpt><trkpt lat="45.4081033" lon="9.1086517"><ele>109.0</ele><time>2026-04-18T08:33:33.989Z</time></trkpt><trkpt lat="45.4081933" lon="9.1086233"><ele>109.0</ele><time>2026-04-18T08:33:34.989Z</time></trkpt><trkpt lat="45.40829" lon="9.1086033"><ele>109.0</ele><time>2026-04-18T08:33:35.989Z</time></trkpt><trkpt lat="45.4083917" lon="9.10859"><ele>109.0</ele><time>2026-04-18T08:33:36.989Z</time></trkpt><trkpt lat="45.408485" lon="9.10857"><ele>109.0</ele><time>2026-04-18T08:33:37.989Z</time></trkpt><trkpt lat="45.40856" lon="9.1085483"><ele>109.0</ele><time>2026-04-18T08:33:38.989Z</time></trkpt><trkpt lat="45.40863" lon="9.1085317"><ele>109.0</ele><time>2026-04-18T08:33:39.989Z</time></trkpt><trkpt lat="45.408745" lon="9.1085083"><ele>109.0</ele><time>2026-04-18T08:33:41.989Z</time></trkpt><trkpt lat="45.408875" lon="9.1084433"><ele>109.0</ele><time>2026-04-18T08:33:43.989Z</time></trkpt><trkpt lat="45.4089583" lon="9.108405"><ele>109.0</ele><time>2026-04-18T08:33:44.989Z</time></trkpt><trkpt lat="45.4090433" lon="9.10839"><ele>109.00000000000001</ele><time>2026-04-18T08:33:45.989Z</time></trkpt><trkpt lat="45.409125" lon="9.108365"><ele>109.0</ele><time>2026-04-18T08:33:46.989Z</time></trkpt><trkpt lat="45.409195" lon="9.1083467"><ele>109.0</ele><time>2026-04-18T08:33:47.989Z</time></trkpt><trkpt lat="45.409275" lon="9.1083133"><ele>109.0</ele><time>2026-04-18T08:33:49.989Z</time></trkpt><trkpt lat="45.4093517" lon="9.10822"><ele>109.00000000000001</ele><time>2026-04-18T08:33:52.99Z</time></trkpt><trkpt lat="45.4093933" lon="9.1081467"><ele>109.0</ele><time>2026-04-18T08:33:53.989Z</time></trkpt><trkpt lat="45.4094433" lon="9.1080583"><ele>109.16666666666667</ele><time>2026-04-18T08:33:54.989Z</time></trkpt><trkpt lat="45.409505" lon="9.1079517"><ele>109.33333333333334</ele><time>2026-04-18T08:33:55.989Z</time></trkpt><trkpt lat="45.4095617" lon="9.1078517"><ele>109.5</ele><time>2026-04-18T08:33:56.989Z</time></trkpt><trkpt lat="45.4096167" lon="9.1077583"><ele>109.66666666666666</ele><time>2026-04-18T08:33:57.989Z</time></trkpt><trkpt lat="45.40967" lon="9.10768"><ele>109.83333333333333</ele><time>2026-04-18T08:33:58.989Z</time></trkpt><trkpt lat="45.4097167" lon="9.1076033"><ele>110.0</ele><time>2026-04-18T08:33:59.989Z</time></trkpt><trkpt lat="45.409785" lon="9.1074683"><ele>110.16666666666666</ele><time>2026-04-18T08:34:01.99Z</time></trkpt><trkpt lat="45.4098383" lon="9.1073183"><ele>110.33333333333333</ele><time>2026-04-18T08:34:03.989Z</time></trkpt><trkpt lat="45.4098767" lon="9.1072417"><ele>110.5</ele><time>2026-04-18T08:34:04.989Z</time></trkpt><trkpt lat="45.409925" lon="9.107155"><ele>110.66666666666666</ele><time>2026-04-18T08:34:05.989Z</time></trkpt><trkpt lat="45.409975" lon="9.1070483"><ele>110.83333333333333</ele><time>2026-04-18T08:34:06.989Z</time></trkpt><trkpt lat="45.4100267" lon="9.1069367"><ele>111.0</ele><time>2026-04-18T08:34:07.989Z</time></trkpt><trkpt lat="45.4100717" lon="9.1068167"><ele>111.0</ele><time>2026-04-18T08:34:08.989Z</time></trkpt><trkpt lat="45.4101133" lon="9.1067117"><ele>111.0</ele><time>2026-04-18T08:34:09.99Z</time></trkpt><trkpt lat="45.4101433" lon="9.1066083"><ele>111.0</ele><time>2026-04-18T08:34:10.989Z</time></trkpt><trkpt lat="45.4101733" lon="9.106515"><ele>111.0</ele><time>2026-04-18T08:34:11.989Z</time></trkpt><trkpt lat="45.41023" lon="9.1063583"><ele>111.0</ele><time>2026-04-18T08:34:13.989Z</time></trkpt><trkpt lat="45.4102683" lon="9.1062733"><ele>111.0</ele><time>2026-04-18T08:34:14.989Z</time></trkpt><trkpt lat="45.4103067" lon="9.106185"><ele>110.83333333333333</ele><time>2026-04-18T08:34:15.989Z</time></trkpt><trkpt lat="45.41035" lon="9.1060933"><ele>110.66666666666666</ele><time>2026-04-18T08:34:16.989Z</time></trkpt><trkpt lat="45.4103867" lon="9.106005"><ele>110.5</ele><time>2026-04-18T08:34:17.99Z</time></trkpt><trkpt lat="45.41042" lon="9.1059117"><ele>110.33333333333333</ele><time>2026-04-18T08:34:18.989Z</time></trkpt><trkpt lat="45.4104583" lon="9.1058167"><ele>110.16666666666666</ele><time>2026-04-18T08:34:19.99Z</time></trkpt><trkpt lat="45.4105017" lon="9.105715"><ele>110.0</ele><time>2026-04-18T08:34:20.989Z</time></trkpt><trkpt lat="45.4105517" lon="9.1056067"><ele>109.8</ele><time>2026-04-18T08:34:21.989Z</time></trkpt><trkpt lat="45.4106067" lon="9.1054767"><ele>109.6</ele><time>2026-04-18T08:34:22.989Z</time></trkpt><trkpt lat="45.41065" lon="9.10534"><ele>109.4</ele><time>2026-04-18T08:34:23.989Z</time></trkpt><trkpt lat="45.41069" lon="9.10521"><ele>109.2</ele><time>2026-04-18T08:34:24.989Z</time></trkpt><trkpt lat="45.4107267" lon="9.10509"><ele>109.0</ele><time>2026-04-18T08:34:25.989Z</time></trkpt><trkpt lat="45.4107683" lon="9.10499"><ele>109.00000000000001</ele><time>2026-04-18T08:34:26.989Z</time></trkpt><trkpt lat="45.4108017" lon="9.1049067"><ele>109.0</ele><time>2026-04-18T08:34:27.989Z</time></trkpt><trkpt lat="45.410855" lon="9.10475"><ele>109.0</ele><time>2026-04-18T08:34:29.989Z</time></trkpt><trkpt lat="45.41089" lon="9.1046733"><ele>109.0</ele><time>2026-04-18T08:34:30.99Z</time></trkpt><trkpt lat="45.4109433" lon="9.1045367"><ele>109.00000000000001</ele><time>2026-04-18T08:34:32.989Z</time></trkpt><trkpt lat="45.4109717" lon="9.1044367"><ele>109.0</ele><time>2026-04-18T08:34:33.989Z</time></trkpt><trkpt lat="45.4109933" lon="9.10434"><ele>109.00000000000001</ele><time>2026-04-18T08:34:34.989Z</time></trkpt><trkpt lat="45.4110367" lon="9.1041917"><ele>109.0</ele><time>2026-04-18T08:34:36.989Z</time></trkpt><trkpt lat="45.4110367" lon="9.104095"><ele>109.0</ele><time>2026-04-18T08:34:38.989Z</time></trkpt><trkpt lat="45.4109883" lon="9.1039783"><ele>109.0</ele><time>2026-04-18T08:34:41.989Z</time></trkpt><trkpt lat="45.4110383" lon="9.104045"><ele>109.00000000000001</ele><time>2026-04-18T08:36:08.989Z</time></trkpt><trkpt lat="45.411055" lon="9.1041817"><ele>109.0</ele><time>2026-04-18T08:36:10.989Z</time></trkpt><trkpt lat="45.411015" lon="9.10434"><ele>109.0</ele><time>2026-04-18T08:36:12.989Z</time></trkpt><trkpt lat="45.41099" lon="9.1044233"><ele>109.0</ele><time>2026-04-18T08:36:13.989Z</time></trkpt><trkpt lat="45.4109667" lon="9.10453"><ele>109.0</ele><time>2026-04-18T08:36:14.989Z</time></trkpt><trkpt lat="45.4109383" lon="9.1046233"><ele>109.0</ele><time>2026-04-18T08:36:15.989Z</time></trkpt><trkpt lat="45.410905" lon="9.1047067"><ele>109.0</ele><time>2026-04-18T08:36:16.989Z</time></trkpt><trkpt lat="45.4108617" lon="9.10479"><ele>109.0</ele><time>2026-04-18T08:36:17.99Z</time></trkpt><trkpt lat="45.4108183" lon="9.1048783"><ele>109.0</ele><time>2026-04-18T08:36:18.989Z</time></trkpt><trkpt lat="45.4107817" lon="9.10496"><ele>109.0</ele><time>2026-04-18T08:36:19.989Z</time></trkpt><trkpt lat="45.4107367" lon="9.1051167"><ele>109.0</ele><time>2026-04-18T08:36:21.989Z</time></trkpt><trkpt lat="45.4106967" lon="9.105235"><ele>109.0</ele><time>2026-04-18T08:36:23.989Z</time></trkpt><trkpt lat="45.4106233" lon="9.1051667"><ele>109.0</ele><time>2026-04-18T08:36:27.99Z</time></trkpt><trkpt lat="45.4105817" lon="9.1050667"><ele>109.0</ele><time>2026-04-18T08:36:29.989Z</time></trkpt><trkpt lat="45.4105383" lon="9.1049167"><ele>109.0</ele><time>2026-04-18T08:36:31.989Z</time></trkpt><trkpt lat="45.4105167" lon="9.1048317"><ele>109.0</ele><time>2026-04-18T08:36:32.989Z</time></trkpt><trkpt lat="45.4104983" lon="9.1047433"><ele>109.0</ele><time>2026-04-18T08:36:33.989Z</time></trkpt><trkpt lat="45.410475" lon="9.1046583"><ele>109.0</ele><time>2026-04-18T08:36:34.989Z</time></trkpt><trkpt lat="45.41045" lon="9.1045717"><ele>109.0</ele><time>2026-04-18T08:36:35.989Z</time></trkpt><trkpt lat="45.4104167" lon="9.1044883"><ele>109.0</ele><time>2026-04-18T08:36:36.989Z</time></trkpt><trkpt lat="45.4103867" lon="9.1044067"><ele>109.0</ele><time>2026-04-18T08:36:37.989Z</time></trkpt><trkpt lat="45.4103267" lon="9.1042567"><ele>109.16666666666667</ele><time>2026-04-18T08:36:39.99Z</time></trkpt><trkpt lat="45.4102817" lon="9.1041333"><ele>109.33333333333334</ele><time>2026-04-18T08:36:41.989Z</time></trkpt><trkpt lat="45.4102467" lon="9.104035"><ele>109.5</ele><time>2026-04-18T08:36:43.989Z</time></trkpt><trkpt lat="45.4102217" lon="9.1039433"><ele>109.66666666666666</ele><time>2026-04-18T08:36:45.989Z</time></trkpt><trkpt lat="45.4101233" lon="9.103885"><ele>109.83333333333333</ele><time>2026-04-18T08:36:58.989Z</time></trkpt><trkpt lat="45.4101783" lon="9.1037983"><ele>110.0</ele><time>2026-04-18T08:39:00.989Z</time></trkpt><trkpt lat="45.410215" lon="9.1038967"><ele>109.99999999999999</ele><time>2026-04-18T08:39:10.989Z</time></trkpt><trkpt lat="45.4102333" lon="9.1040333"><ele>110.0</ele><time>2026-04-18T08:39:18.988Z</time></trkpt><trkpt lat="45.4102583" lon="9.104135"><ele>110.0</ele><time>2026-04-18T08:39:20.988Z</time></trkpt><trkpt lat="45.4103183" lon="9.10426"><ele>110.0</ele><time>2026-04-18T08:39:22.989Z</time></trkpt><trkpt lat="45.4103617" lon="9.1043433"><ele>109.99999999999999</ele><time>2026-04-18T08:39:23.988Z</time></trkpt><trkpt lat="45.410405" lon="9.104445"><ele>110.0</ele><time>2026-04-18T08:39:24.988Z</time></trkpt><trkpt lat="45.41044" lon="9.10455"><ele>109.99999999999999</ele><time>2026-04-18T08:39:25.989Z</time></trkpt><trkpt lat="45.4104683" lon="9.1046467"><ele>110.0</ele><time>2026-04-18T08:39:26.988Z</time></trkpt><trkpt lat="45.4104967" lon="9.104745"><ele>110.0</ele><time>2026-04-18T08:39:27.988Z</time></trkpt><trkpt lat="45.4105217" lon="9.10483"><ele>110.0</ele><time>2026-04-18T08:39:28.988Z</time></trkpt><trkpt lat="45.4105467" lon="9.104915"><ele>109.99999999999999</ele><time>2026-04-18T08:39:29.988Z</time></trkpt><trkpt lat="45.4105917" lon="9.105055"><ele>110.0</ele><time>2026-04-18T08:39:31.988Z</time></trkpt><trkpt lat="45.4106333" lon="9.10517"><ele>109.99999999999999</ele><time>2026-04-18T08:39:33.988Z</time></trkpt><trkpt lat="45.4106683" lon="9.10527"><ele>110.0</ele><time>2026-04-18T08:39:35.988Z</time></trkpt><trkpt lat="45.4106467" lon="9.1054017"><ele>110.0</ele><time>2026-04-18T08:39:37.988Z</time></trkpt><trkpt lat="45.4106167" lon="9.105495"><ele>110.0</ele><time>2026-04-18T08:39:38.988Z</time></trkpt><trkpt lat="45.4105767" lon="9.10559"><ele>109.99999999999999</ele><time>2026-04-18T08:39:39.988Z</time></trkpt><trkpt lat="45.4105333" lon="9.10568"><ele>110.0</ele><time>2026-04-18T08:39:40.988Z</time></trkpt><trkpt lat="45.4104933" lon="9.105765"><ele>109.99999999999999</ele><time>2026-04-18T08:39:41.988Z</time></trkpt><trkpt lat="45.4104533" lon="9.1058483"><ele>110.0</ele><time>2026-04-18T08:39:42.988Z</time></trkpt><trkpt lat="45.41042" lon="9.1059367"><ele>110.0</ele><time>2026-04-18T08:39:43.988Z</time></trkpt><trkpt lat="45.4103883" lon="9.1060167"><ele>110.0</ele><time>2026-04-18T08:39:44.988Z</time></trkpt><trkpt lat="45.4103167" lon="9.1061667"><ele>109.99999999999999</ele><time>2026-04-18T08:39:46.988Z</time></trkpt><trkpt lat="45.4102833" lon="9.1062483"><ele>110.0</ele><time>2026-04-18T08:39:47.988Z</time></trkpt><trkpt lat="45.410245" lon="9.1063217"><ele>109.99999999999999</ele><time>2026-04-18T08:39:48.988Z</time></trkpt><trkpt lat="45.4102033" lon="9.1064017"><ele>110.0</ele><time>2026-04-18T08:39:49.988Z</time></trkpt><trkpt lat="45.410165" lon="9.1064933"><ele>110.0</ele><time>2026-04-18T08:39:50.988Z</time></trkpt><trkpt lat="45.4101267" lon="9.1066"><ele>110.0</ele><time>2026-04-18T08:39:51.988Z</time></trkpt><trkpt lat="45.4100983" lon="9.1067033"><ele>109.99999999999999</ele><time>2026-04-18T08:39:52.988Z</time></trkpt><trkpt lat="45.4100683" lon="9.1068067"><ele>110.0</ele><time>2026-04-18T08:39:53.988Z</time></trkpt><trkpt lat="45.4100283" lon="9.106915"><ele>109.99999999999999</ele><time>2026-04-18T08:39:54.988Z</time></trkpt><trkpt lat="45.4099817" lon="9.1070133"><ele>110.0</ele><time>2026-04-18T08:39:55.988Z</time></trkpt><trkpt lat="45.4099317" lon="9.1071183"><ele>110.0</ele><time>2026-04-18T08:39:56.988Z</time></trkpt><trkpt lat="45.4098833" lon="9.107205"><ele>110.0</ele><time>2026-04-18T08:39:57.988Z</time></trkpt><trkpt lat="45.4098417" lon="9.10728"><ele>109.99999999999999</ele><time>2026-04-18T08:39:58.988Z</time></trkpt><trkpt lat="45.409785" lon="9.1074317"><ele>110.0</ele><time>2026-04-18T08:40:00.989Z</time></trkpt><trkpt lat="45.4097517" lon="9.1075217"><ele>110.0</ele><time>2026-04-18T08:40:01.988Z</time></trkpt><trkpt lat="45.40971" lon="9.1076133"><ele>110.0</ele><time>2026-04-18T08:40:02.988Z</time></trkpt><trkpt lat="45.4096533" lon="9.1077167"><ele>110.0</ele><time>2026-04-18T08:40:03.988Z</time></trkpt><trkpt lat="45.40958" lon="9.1078383"><ele>110.0</ele><time>2026-04-18T08:40:04.988Z</time></trkpt><trkpt lat="45.40951" lon="9.1079483"><ele>110.0</ele><time>2026-04-18T08:40:05.988Z</time></trkpt><trkpt lat="45.4094567" lon="9.1080467"><ele>110.16666666666666</ele><time>2026-04-18T08:40:06.988Z</time></trkpt><trkpt lat="45.4094067" lon="9.1081367"><ele>110.33333333333333</ele><time>2026-04-18T08:40:07.988Z</time></trkpt><trkpt lat="45.4093683" lon="9.10821"><ele>110.5</ele><time>2026-04-18T08:40:08.988Z</time></trkpt><trkpt lat="45.4092683" lon="9.1083133"><ele>110.66666666666666</ele><time>2026-04-18T08:40:10.988Z</time></trkpt><trkpt lat="45.4091983" lon="9.1083483"><ele>110.83333333333333</ele><time>2026-04-18T08:40:11.988Z</time></trkpt><trkpt lat="45.4091217" lon="9.1083883"><ele>111.0</ele><time>2026-04-18T08:40:12.988Z</time></trkpt><trkpt lat="45.409035" lon="9.1084267"><ele>110.66666666666667</ele><time>2026-04-18T08:40:13.988Z</time></trkpt><trkpt lat="45.4089467" lon="9.108465"><ele>110.33333333333334</ele><time>2026-04-18T08:40:14.988Z</time></trkpt><trkpt lat="45.4088733" lon="9.1084917"><ele>110.0</ele><time>2026-04-18T08:40:15.988Z</time></trkpt><trkpt lat="45.40881" lon="9.1085067"><ele>109.66666666666667</ele><time>2026-04-18T08:40:16.988Z</time></trkpt><trkpt lat="45.4087383" lon="9.1085217"><ele>109.33333333333334</ele><time>2026-04-18T08:40:17.989Z</time></trkpt><trkpt lat="45.408665" lon="9.1085217"><ele>109.0</ele><time>2026-04-18T08:40:18.988Z</time></trkpt><trkpt lat="45.4085833" lon="9.10852"><ele>109.00000000000001</ele><time>2026-04-18T08:40:19.988Z</time></trkpt><trkpt lat="45.4085033" lon="9.10854"><ele>109.0</ele><time>2026-04-18T08:40:20.988Z</time></trkpt><trkpt lat="45.4084167" lon="9.108565"><ele>109.0</ele><time>2026-04-18T08:40:21.988Z</time></trkpt><trkpt lat="45.4083217" lon="9.1085767"><ele>109.0</ele><time>2026-04-18T08:40:22.988Z</time></trkpt><trkpt lat="45.4082267" lon="9.1086"><ele>109.00000000000001</ele><time>2026-04-18T08:40:23.989Z</time></trkpt><trkpt lat="45.4081433" lon="9.10862"><ele>109.0</ele><time>2026-04-18T08:40:24.988Z</time></trkpt><trkpt lat="45.4080217" lon="9.108655"><ele>109.00000000000001</ele><time>2026-04-18T08:40:26.988Z</time></trkpt><trkpt lat="45.4079567" lon="9.1086717"><ele>109.0</ele><time>2026-04-18T08:40:27.988Z</time></trkpt><trkpt lat="45.40788" lon="9.108695"><ele>109.0</ele><time>2026-04-18T08:40:28.988Z</time></trkpt><trkpt lat="45.4078033" lon="9.1087183"><ele>109.0</ele><time>2026-04-18T08:40:29.988Z</time></trkpt><trkpt lat="45.40772" lon="9.1087517"><ele>109.00000000000001</ele><time>2026-04-18T08:40:30.988Z</time></trkpt><trkpt lat="45.4076417" lon="9.1087817"><ele>109.0</ele><time>2026-04-18T08:40:31.988Z</time></trkpt><trkpt lat="45.40757" lon="9.1088133"><ele>109.0</ele><time>2026-04-18T08:40:32.988Z</time></trkpt><trkpt lat="45.4074667" lon="9.1088117"><ele>109.0</ele><time>2026-04-18T08:40:34.989Z</time></trkpt><trkpt lat="45.40741" lon="9.10871"><ele>109.0</ele><time>2026-04-18T08:40:36.988Z</time></trkpt><trkpt lat="45.40738" lon="9.1085383"><ele>109.0</ele><time>2026-04-18T08:40:38.988Z</time></trkpt><trkpt lat="45.4073467" lon="9.108385"><ele>109.0</ele><time>2026-04-18T08:40:40.988Z</time></trkpt><trkpt lat="45.407325" lon="9.108265"><ele>109.0</ele><time>2026-04-18T08:40:42.988Z</time></trkpt><trkpt lat="45.407285" lon="9.1081817"><ele>109.0</ele><time>2026-04-18T08:40:45.988Z</time></trkpt><trkpt lat="45.407295" lon="9.1083183"><ele>109.0</ele><time>2026-04-18T08:40:49.988Z</time></trkpt><trkpt lat="45.4073083" lon="9.1084117"><ele>109.0</ele><time>2026-04-18T08:40:50.988Z</time></trkpt><trkpt lat="45.4073317" lon="9.10851"><ele>109.0</ele><time>2026-04-18T08:40:51.988Z</time></trkpt><trkpt lat="45.4073633" lon="9.108605"><ele>109.0</ele><time>2026-04-18T08:40:52.988Z</time></trkpt><trkpt lat="45.4073917" lon="9.1086917"><ele>109.0</ele><time>2026-04-18T08:40:53.988Z</time></trkpt><trkpt lat="45.4074267" lon="9.1088233"><ele>109.00000000000001</ele><time>2026-04-18T08:40:55.988Z</time></trkpt><trkpt lat="45.407415" lon="9.108925"><ele>109.0</ele><time>2026-04-18T08:40:57.988Z</time></trkpt><trkpt lat="45.4073033" lon="9.10902"><ele>109.0</ele><time>2026-04-18T08:40:59.988Z</time></trkpt><trkpt lat="45.4072383" lon="9.1090683"><ele>109.0</ele><time>2026-04-18T08:41:00.988Z</time></trkpt><trkpt lat="45.40717" lon="9.10912"><ele>109.00000000000001</ele><time>2026-04-18T08:41:01.988Z</time></trkpt><trkpt lat="45.4070833" lon="9.1091617"><ele>109.0</ele><time>2026-04-18T08:41:02.988Z</time></trkpt><trkpt lat="45.407005" lon="9.109195"><ele>109.2</ele><time>2026-04-18T08:41:03.988Z</time></trkpt><trkpt lat="45.406925" lon="9.1092183"><ele>109.4</ele><time>2026-04-18T08:41:04.988Z</time></trkpt><trkpt lat="45.4068283" lon="9.10925"><ele>109.6</ele><time>2026-04-18T08:41:05.988Z</time></trkpt><trkpt lat="45.40673" lon="9.109275"><ele>109.8</ele><time>2026-04-18T08:41:06.988Z</time></trkpt><trkpt lat="45.406635" lon="9.109305"><ele>110.0</ele><time>2026-04-18T08:41:07.988Z</time></trkpt><trkpt lat="45.4065333" lon="9.1093317"><ele>110.0</ele><time>2026-04-18T08:41:08.988Z</time></trkpt><trkpt lat="45.40643" lon="9.1093667"><ele>110.0</ele><time>2026-04-18T08:41:09.988Z</time></trkpt><trkpt lat="45.4063283" lon="9.1094033"><ele>110.0</ele><time>2026-04-18T08:41:10.988Z</time></trkpt><trkpt lat="45.40623" lon="9.1094267"><ele>110.0</ele><time>2026-04-18T08:41:11.988Z</time></trkpt><trkpt lat="45.4061133" lon="9.1094617"><ele>110.0</ele><time>2026-04-18T08:41:12.988Z</time></trkpt><trkpt lat="45.4059967" lon="9.109485"><ele>109.5</ele><time>2026-04-18T08:41:13.988Z</time></trkpt><trkpt lat="45.40588" lon="9.1095"><ele>109.0</ele><time>2026-04-18T08:41:14.988Z</time></trkpt><trkpt lat="45.4057583" lon="9.10951"><ele>108.5</ele><time>2026-04-18T08:41:15.988Z</time></trkpt><trkpt lat="45.40563" lon="9.10951"><ele>108.0</ele><time>2026-04-18T08:41:16.988Z</time></trkpt><trkpt lat="45.4055017" lon="9.1095083"><ele>108.0</ele><time>2026-04-18T08:41:17.988Z</time></trkpt><trkpt lat="45.4053783" lon="9.1095067"><ele>108.0</ele><time>2026-04-18T08:41:18.988Z</time></trkpt><trkpt lat="45.4052517" lon="9.1094933"><ele>108.0</ele><time>2026-04-18T08:41:19.988Z</time></trkpt><trkpt lat="45.40513" lon="9.10948"><ele>108.0</ele><time>2026-04-18T08:41:20.988Z</time></trkpt><trkpt lat="45.4050133" lon="9.1094767"><ele>108.0</ele><time>2026-04-18T08:41:21.988Z</time></trkpt><trkpt lat="45.404905" lon="9.1094717"><ele>108.00000000000001</ele><time>2026-04-18T08:41:22.989Z</time></trkpt><trkpt lat="45.4048033" lon="9.109475"><ele>108.00000000000001</ele><time>2026-04-18T08:41:23.988Z</time></trkpt><trkpt lat="45.4047067" lon="9.1094917"><ele>108.0</ele><time>2026-04-18T08:41:24.988Z</time></trkpt><trkpt lat="45.4046033" lon="9.1095133"><ele>108.0</ele><time>2026-04-18T08:41:25.988Z</time></trkpt><trkpt lat="45.4044967" lon="9.1095483"><ele>108.0</ele><time>2026-04-18T08:41:26.988Z</time></trkpt><trkpt lat="45.4043867" lon="9.1095733"><ele>108.0</ele><time>2026-04-18T08:41:27.988Z</time></trkpt><trkpt lat="45.4042617" lon="9.109605"><ele>108.0</ele><time>2026-04-18T08:41:28.988Z</time></trkpt><trkpt lat="45.4041333" lon="9.1096267"><ele>108.0</ele><time>2026-04-18T08:41:29.988Z</time></trkpt><trkpt lat="45.4040033" lon="9.1096517"><ele>108.0</ele><time>2026-04-18T08:41:30.989Z</time></trkpt><trkpt lat="45.4038717" lon="9.1096733"><ele>108.0</ele><time>2026-04-18T08:41:31.988Z</time></trkpt><trkpt lat="45.4037517" lon="9.109725"><ele>108.0</ele><time>2026-04-18T08:41:32.988Z</time></trkpt><trkpt lat="45.4036283" lon="9.1098183"><ele>108.0</ele><time>2026-04-18T08:41:33.988Z</time></trkpt><trkpt lat="45.4035083" lon="9.1099317"><ele>107.75</ele><time>2026-04-18T08:41:34.988Z</time></trkpt><trkpt lat="45.4033967" lon="9.1100467"><ele>107.5</ele><time>2026-04-18T08:41:35.988Z</time></trkpt><trkpt lat="45.4032817" lon="9.1101683"><ele>107.25</ele><time>2026-04-18T08:41:36.988Z</time></trkpt><trkpt lat="45.40316" lon="9.1102867"><ele>107.0</ele><time>2026-04-18T08:41:37.988Z</time></trkpt><trkpt lat="45.4030317" lon="9.1104217"><ele>107.0</ele><time>2026-04-18T08:41:38.988Z</time></trkpt><trkpt lat="45.4029083" lon="9.1105533"><ele>107.0</ele><time>2026-04-18T08:41:39.988Z</time></trkpt><trkpt lat="45.40279" lon="9.110685"><ele>107.0</ele><time>2026-04-18T08:41:40.988Z</time></trkpt><trkpt lat="45.4026717" lon="9.1108033"><ele>107.0</ele><time>2026-04-18T08:41:41.988Z</time></trkpt><trkpt lat="45.4025517" lon="9.1109283"><ele>107.0</ele><time>2026-04-18T08:41:42.988Z</time></trkpt><trkpt lat="45.4024367" lon="9.1110483"><ele>107.0</ele><time>2026-04-18T08:41:43.988Z</time></trkpt><trkpt lat="45.4023167" lon="9.1111733"><ele>107.0</ele><time>2026-04-18T08:41:44.988Z</time></trkpt><trkpt lat="45.402185" lon="9.1112833"><ele>107.0</ele><time>2026-04-18T08:41:45.988Z</time></trkpt><trkpt lat="45.4020467" lon="9.1114"><ele>106.66666666666666</ele><time>2026-04-18T08:41:46.988Z</time></trkpt><trkpt lat="45.401905" lon="9.1115033"><ele>106.33333333333334</ele><time>2026-04-18T08:41:47.988Z</time></trkpt><trkpt lat="45.40177" lon="9.111595"><ele>106.0</ele><time>2026-04-18T08:41:48.988Z</time></trkpt><trkpt lat="45.4016367" lon="9.1116717"><ele>106.0</ele><time>2026-04-18T08:41:49.988Z</time></trkpt><trkpt lat="45.4015117" lon="9.1117483"><ele>106.0</ele><time>2026-04-18T08:41:50.988Z</time></trkpt><trkpt lat="45.4013783" lon="9.1118133"><ele>106.0</ele><time>2026-04-18T08:41:51.989Z</time></trkpt><trkpt lat="45.4012433" lon="9.1118583"><ele>106.0</ele><time>2026-04-18T08:41:52.988Z</time></trkpt><trkpt lat="45.40111" lon="9.1118933"><ele>106.5</ele><time>2026-04-18T08:41:53.988Z</time></trkpt><trkpt lat="45.400975" lon="9.1119133"><ele>107.0</ele><time>2026-04-18T08:41:54.988Z</time></trkpt><trkpt lat="45.40084" lon="9.1119367"><ele>107.5</ele><time>2026-04-18T08:41:55.988Z</time></trkpt><trkpt lat="45.4007" lon="9.1119633"><ele>108.0</ele><time>2026-04-18T08:41:56.988Z</time></trkpt><trkpt lat="45.4005533" lon="9.1120183"><ele>108.0</ele><time>2026-04-18T08:41:57.989Z</time></trkpt><trkpt lat="45.4004117" lon="9.1120867"><ele>108.0</ele><time>2026-04-18T08:41:58.988Z</time></trkpt><trkpt lat="45.4002683" lon="9.1121517"><ele>108.0</ele><time>2026-04-18T08:41:59.988Z</time></trkpt><trkpt lat="45.4001217" lon="9.112225"><ele>108.0</ele><time>2026-04-18T08:42:00.988Z</time></trkpt><trkpt lat="45.3999767" lon="9.11228"><ele>108.0</ele><time>2026-04-18T08:42:01.988Z</time></trkpt><trkpt lat="45.3998233" lon="9.1123233"><ele>108.0</ele><time>2026-04-18T08:42:02.988Z</time></trkpt><trkpt lat="45.39968" lon="9.1123833"><ele>107.33333333333334</ele><time>2026-04-18T08:42:03.988Z</time></trkpt><trkpt lat="45.3995267" lon="9.112435"><ele>106.66666666666667</ele><time>2026-04-18T08:42:04.988Z</time></trkpt><trkpt lat="45.399385" lon="9.112495"><ele>106.0</ele><time>2026-04-18T08:42:05.988Z</time></trkpt><trkpt lat="45.39924" lon="9.1125467"><ele>106.0</ele><time>2026-04-18T08:42:06.988Z</time></trkpt><trkpt lat="45.3991033" lon="9.1125983"><ele>106.0</ele><time>2026-04-18T08:42:07.988Z</time></trkpt><trkpt lat="45.398965" lon="9.1126433"><ele>106.0</ele><time>2026-04-18T08:42:08.988Z</time></trkpt><trkpt lat="45.3988317" lon="9.1126917"><ele>106.0</ele><time>2026-04-18T08:42:09.988Z</time></trkpt><trkpt lat="45.3986883" lon="9.11274"><ele>106.5</ele><time>2026-04-18T08:42:10.989Z</time></trkpt><trkpt lat="45.39855" lon="9.112795"><ele>107.0</ele><time>2026-04-18T08:42:11.988Z</time></trkpt><trkpt lat="45.39841" lon="9.112835"><ele>107.5</ele><time>2026-04-18T08:42:12.988Z</time></trkpt><trkpt lat="45.3982683" lon="9.1128933"><ele>108.0</ele><time>2026-04-18T08:42:13.988Z</time></trkpt><trkpt lat="45.3981317" lon="9.112955"><ele>108.25</ele><time>2026-04-18T08:42:14.988Z</time></trkpt><trkpt lat="45.3979933" lon="9.1130067"><ele>108.5</ele><time>2026-04-18T08:42:15.989Z</time></trkpt><trkpt lat="45.3978467" lon="9.1130633"><ele>108.75</ele><time>2026-04-18T08:42:16.988Z</time></trkpt><trkpt lat="45.397705" lon="9.1131183"><ele>109.0</ele><time>2026-04-18T08:42:17.988Z</time></trkpt><trkpt lat="45.39755" lon="9.11316"><ele>109.0</ele><time>2026-04-18T08:42:18.989Z</time></trkpt><trkpt lat="45.3974" lon="9.1131833"><ele>109.0</ele><time>2026-04-18T08:42:19.988Z</time></trkpt><trkpt lat="45.39726" lon="9.1131983"><ele>109.0</ele><time>2026-04-18T08:42:20.988Z</time></trkpt><trkpt lat="45.397125" lon="9.1132117"><ele>109.0</ele><time>2026-04-18T08:42:21.988Z</time></trkpt><trkpt lat="45.396995" lon="9.1132233"><ele>109.0</ele><time>2026-04-18T08:42:22.988Z</time></trkpt><trkpt lat="45.3968683" lon="9.1132283"><ele>109.0</ele><time>2026-04-18T08:42:23.988Z</time></trkpt><trkpt lat="45.39674" lon="9.113235"><ele>109.0</ele><time>2026-04-18T08:42:24.988Z</time></trkpt><trkpt lat="45.396605" lon="9.1132367"><ele>109.0</ele><time>2026-04-18T08:42:25.988Z</time></trkpt><trkpt lat="45.3964733" lon="9.1132467"><ele>109.0</ele><time>2026-04-18T08:42:26.988Z</time></trkpt><trkpt lat="45.3963367" lon="9.11325"><ele>109.0</ele><time>2026-04-18T08:42:27.988Z</time></trkpt><trkpt lat="45.3962" lon="9.11326"><ele>109.0</ele><time>2026-04-18T08:42:28.988Z</time></trkpt><trkpt lat="45.3960617" lon="9.1132767"><ele>109.0</ele><time>2026-04-18T08:42:29.988Z</time></trkpt><trkpt lat="45.395915" lon="9.1133033"><ele>108.75</ele><time>2026-04-18T08:42:30.988Z</time></trkpt><trkpt lat="45.3957683" lon="9.1133067"><ele>108.5</ele><time>2026-04-18T08:42:31.988Z</time></trkpt><trkpt lat="45.3956217" lon="9.1133217"><ele>108.25</ele><time>2026-04-18T08:42:32.988Z</time></trkpt><trkpt lat="45.3954717" lon="9.11334"><ele>108.0</ele><time>2026-04-18T08:42:33.988Z</time></trkpt><trkpt lat="45.395315" lon="9.1133517"><ele>107.33333333333334</ele><time>2026-04-18T08:42:34.988Z</time></trkpt><trkpt lat="45.3951633" lon="9.1133567"><ele>106.66666666666667</ele><time>2026-04-18T08:42:35.988Z</time></trkpt><trkpt lat="45.3950017" lon="9.11336"><ele>106.0</ele><time>2026-04-18T08:42:36.988Z</time></trkpt><trkpt lat="45.3948483" lon="9.11337"><ele>106.0</ele><time>2026-04-18T08:42:37.988Z</time></trkpt><trkpt lat="45.39471" lon="9.113375"><ele>106.0</ele><time>2026-04-18T08:42:38.988Z</time></trkpt><trkpt lat="45.394575" lon="9.11338"><ele>106.0</ele><time>2026-04-18T08:42:39.988Z</time></trkpt><trkpt lat="45.39444" lon="9.1133983"><ele>106.0</ele><time>2026-04-18T08:42:40.988Z</time></trkpt><trkpt lat="45.3943067" lon="9.1134"><ele>106.25</ele><time>2026-04-18T08:42:41.988Z</time></trkpt><trkpt lat="45.394175" lon="9.11341"><ele>106.5</ele><time>2026-04-18T08:42:42.988Z</time></trkpt><trkpt lat="45.3940383" lon="9.1134233"><ele>106.75</ele><time>2026-04-18T08:42:43.988Z</time></trkpt><trkpt lat="45.3939" lon="9.113435"><ele>107.0</ele><time>2026-04-18T08:42:44.988Z</time></trkpt><trkpt lat="45.393775" lon="9.1134383"><ele>106.5</ele><time>2026-04-18T08:42:45.988Z</time></trkpt><trkpt lat="45.3936467" lon="9.1134517"><ele>106.0</ele><time>2026-04-18T08:42:46.988Z</time></trkpt><trkpt lat="45.3935133" lon="9.11346"><ele>105.5</ele><time>2026-04-18T08:42:47.988Z</time></trkpt><trkpt lat="45.3933883" lon="9.1134633"><ele>105.0</ele><time>2026-04-18T08:42:48.988Z</time></trkpt><trkpt lat="45.3932583" lon="9.113475"><ele>105.0</ele><time>2026-04-18T08:42:49.988Z</time></trkpt><trkpt lat="45.3931233" lon="9.1134967"><ele>105.0</ele><time>2026-04-18T08:42:50.988Z</time></trkpt><trkpt lat="45.39298" lon="9.1135117"><ele>105.0</ele><time>2026-04-18T08:42:51.988Z</time></trkpt><trkpt lat="45.392845" lon="9.1135233"><ele>105.0</ele><time>2026-04-18T08:42:52.988Z</time></trkpt><trkpt lat="45.3927117" lon="9.11353"><ele>104.25</ele><time>2026-04-18T08:42:53.988Z</time></trkpt><trkpt lat="45.39258" lon="9.1135383"><ele>103.5</ele><time>2026-04-18T08:42:54.988Z</time></trkpt><trkpt lat="45.3924617" lon="9.1135483"><ele>102.75</ele><time>2026-04-18T08:42:55.988Z</time></trkpt><trkpt lat="45.392335" lon="9.1135683"><ele>102.0</ele><time>2026-04-18T08:42:56.988Z</time></trkpt><trkpt lat="45.39221" lon="9.1135683"><ele>102.25</ele><time>2026-04-18T08:42:57.988Z</time></trkpt><trkpt lat="45.3920867" lon="9.1135717"><ele>102.5</ele><time>2026-04-18T08:42:58.988Z</time></trkpt><trkpt lat="45.3919583" lon="9.1135833"><ele>102.75</ele><time>2026-04-18T08:42:59.989Z</time></trkpt><trkpt lat="45.3918283" lon="9.11359"><ele>103.0</ele><time>2026-04-18T08:43:00.988Z</time></trkpt><trkpt lat="45.391695" lon="9.1135983"><ele>103.0</ele><time>2026-04-18T08:43:01.988Z</time></trkpt><trkpt lat="45.3915633" lon="9.1136017"><ele>103.0</ele><time>2026-04-18T08:43:02.988Z</time></trkpt><trkpt lat="45.39143" lon="9.113615"><ele>103.0</ele><time>2026-04-18T08:43:03.988Z</time></trkpt><trkpt lat="45.3912883" lon="9.1136083"><ele>103.0</ele><time>2026-04-18T08:43:04.988Z</time></trkpt><trkpt lat="45.39116" lon="9.1135567"><ele>103.5</ele><time>2026-04-18T08:43:05.988Z</time></trkpt><trkpt lat="45.3910367" lon="9.1134867"><ele>104.0</ele><time>2026-04-18T08:43:06.988Z</time></trkpt><trkpt lat="45.3909217" lon="9.11341"><ele>104.5</ele><time>2026-04-18T08:43:07.988Z</time></trkpt><trkpt lat="45.3908167" lon="9.11333"><ele>105.0</ele><time>2026-04-18T08:43:08.988Z</time></trkpt><trkpt lat="45.39071" lon="9.113275"><ele>105.0</ele><time>2026-04-18T08:43:09.988Z</time></trkpt><trkpt lat="45.390595" lon="9.1132433"><ele>105.0</ele><time>2026-04-18T08:43:10.988Z</time></trkpt><trkpt lat="45.3904783" lon="9.11322"><ele>105.0</ele><time>2026-04-18T08:43:11.988Z</time></trkpt><trkpt lat="45.3903583" lon="9.11319"><ele>105.0</ele><time>2026-04-18T08:43:12.988Z</time></trkpt><trkpt lat="45.3902383" lon="9.1131533"><ele>105.75</ele><time>2026-04-18T08:43:13.988Z</time></trkpt><trkpt lat="45.3901067" lon="9.1131117"><ele>106.5</ele><time>2026-04-18T08:43:14.988Z</time></trkpt><trkpt lat="45.3899717" lon="9.1130667"><ele>107.25</ele><time>2026-04-18T08:43:15.988Z</time></trkpt><trkpt lat="45.3898433" lon="9.1130233"><ele>108.0</ele><time>2026-04-18T08:43:16.988Z</time></trkpt><trkpt lat="45.3897233" lon="9.1129783"><ele>107.80000000000001</ele><time>2026-04-18T08:43:17.988Z</time></trkpt><trkpt lat="45.3896033" lon="9.11294"><ele>107.60000000000001</ele><time>2026-04-18T08:43:18.988Z</time></trkpt><trkpt lat="45.3894967" lon="9.11291"><ele>107.39999999999999</ele><time>2026-04-18T08:43:19.988Z</time></trkpt><trkpt lat="45.3894033" lon="9.112885"><ele>107.19999999999999</ele><time>2026-04-18T08:43:20.988Z</time></trkpt><trkpt lat="45.3893267" lon="9.1128717"><ele>107.0</ele><time>2026-04-18T08:43:21.989Z</time></trkpt><trkpt lat="45.3892167" lon="9.1128383"><ele>106.99999999999999</ele><time>2026-04-18T08:43:23.988Z</time></trkpt><trkpt lat="45.3891583" lon="9.1127983"><ele>107.0</ele><time>2026-04-18T08:43:26.988Z</time></trkpt><trkpt lat="45.3890767" lon="9.112755"><ele>107.0</ele><time>2026-04-18T08:43:47.988Z</time></trkpt><trkpt lat="45.3890483" lon="9.1126333"><ele>107.0</ele><time>2026-04-18T08:43:49.989Z</time></trkpt><trkpt lat="45.3890817" lon="9.1125017"><ele>106.99999999999999</ele><time>2026-04-18T08:43:51.988Z</time></trkpt><trkpt lat="45.3891167" lon="9.112405"><ele>107.0</ele><time>2026-04-18T08:48:50.987Z</time></trkpt><trkpt lat="45.38915" lon="9.112265"><ele>107.0</ele><time>2026-04-18T08:48:52.987Z</time></trkpt><trkpt lat="45.3891733" lon="9.1121517"><ele>106.99999999999999</ele><time>2026-04-18T08:48:53.987Z</time></trkpt><trkpt lat="45.38919" lon="9.1120267"><ele>106.99999999999999</ele><time>2026-04-18T08:48:54.987Z</time></trkpt><trkpt lat="45.3891967" lon="9.1118817"><ele>107.0</ele><time>2026-04-18T08:48:55.987Z</time></trkpt><trkpt lat="45.389225" lon="9.1117417"><ele>107.0</ele><time>2026-04-18T08:48:56.987Z</time></trkpt><trkpt lat="45.38924" lon="9.1115867"><ele>107.0</ele><time>2026-04-18T08:48:57.987Z</time></trkpt><trkpt lat="45.389255" lon="9.111425"><ele>107.0</ele><time>2026-04-18T08:48:58.987Z</time></trkpt><trkpt lat="45.3892833" lon="9.1112533"><ele>107.0</ele><time>2026-04-18T08:48:59.987Z</time></trkpt><trkpt lat="45.3893167" lon="9.1110533"><ele>107.0</ele><time>2026-04-18T08:49:00.987Z</time></trkpt><trkpt lat="45.38935" lon="9.1108533"><ele>106.5</ele><time>2026-04-18T08:49:01.987Z</time></trkpt><trkpt lat="45.389395" lon="9.1106633"><ele>106.0</ele><time>2026-04-18T08:49:02.987Z</time></trkpt><trkpt lat="45.3894217" lon="9.11048"><ele>105.5</ele><time>2026-04-18T08:49:03.988Z</time></trkpt><trkpt lat="45.389425" lon="9.1103033"><ele>105.0</ele><time>2026-04-18T08:49:04.987Z</time></trkpt><trkpt lat="45.3894367" lon="9.110155"><ele>105.0</ele><time>2026-04-18T08:49:05.987Z</time></trkpt><trkpt lat="45.3894367" lon="9.1100133"><ele>105.0</ele><time>2026-04-18T08:49:06.987Z</time></trkpt><trkpt lat="45.3894483" lon="9.10987"><ele>105.0</ele><time>2026-04-18T08:49:07.987Z</time></trkpt><trkpt lat="45.3894567" lon="9.1097"><ele>105.0</ele><time>2026-04-18T08:49:08.987Z</time></trkpt><trkpt lat="45.3894583" lon="9.1095217"><ele>105.0</ele><time>2026-04-18T08:49:09.987Z</time></trkpt><trkpt lat="45.389445" lon="9.1093417"><ele>104.75</ele><time>2026-04-18T08:49:10.987Z</time></trkpt><trkpt lat="45.3894283" lon="9.1091483"><ele>104.5</ele><time>2026-04-18T08:49:11.987Z</time></trkpt><trkpt lat="45.3894033" lon="9.1089617"><ele>104.25</ele><time>2026-04-18T08:49:12.987Z</time></trkpt><trkpt lat="45.3893733" lon="9.108775"><ele>104.0</ele><time>2026-04-18T08:49:13.987Z</time></trkpt><trkpt lat="45.389335" lon="9.1086017"><ele>104.0</ele><time>2026-04-18T08:49:14.987Z</time></trkpt><trkpt lat="45.3893017" lon="9.1084417"><ele>104.0</ele><time>2026-04-18T08:49:15.987Z</time></trkpt><trkpt lat="45.38927" lon="9.1082833"><ele>104.0</ele><time>2026-04-18T08:49:16.987Z</time></trkpt><trkpt lat="45.38924" lon="9.1081317"><ele>104.0</ele><time>2026-04-18T08:49:17.987Z</time></trkpt><trkpt lat="45.3892117" lon="9.1079817"><ele>103.75</ele><time>2026-04-18T08:49:18.987Z</time></trkpt><trkpt lat="45.3891767" lon="9.1078217"><ele>103.5</ele><time>2026-04-18T08:49:19.987Z</time></trkpt><trkpt lat="45.389145" lon="9.10765"><ele>103.25</ele><time>2026-04-18T08:49:20.987Z</time></trkpt><trkpt lat="45.3891133" lon="9.1074883"><ele>103.0</ele><time>2026-04-18T08:49:21.987Z</time></trkpt><trkpt lat="45.3890867" lon="9.1073283"><ele>103.0</ele><time>2026-04-18T08:49:22.987Z</time></trkpt><trkpt lat="45.3890733" lon="9.1071583"><ele>103.0</ele><time>2026-04-18T08:49:23.987Z</time></trkpt><trkpt lat="45.3890633" lon="9.10698"><ele>103.0</ele><time>2026-04-18T08:49:24.987Z</time></trkpt><trkpt lat="45.38906" lon="9.1068117"><ele>103.0</ele><time>2026-04-18T08:49:25.987Z</time></trkpt><trkpt lat="45.38906" lon="9.10665"><ele>103.0</ele><time>2026-04-18T08:49:26.987Z</time></trkpt><trkpt lat="45.3890533" lon="9.1064983"><ele>103.0</ele><time>2026-04-18T08:49:27.987Z</time></trkpt><trkpt lat="45.38903" lon="9.10635"><ele>103.0</ele><time>2026-04-18T08:49:28.987Z</time></trkpt><trkpt lat="45.388985" lon="9.1062083"><ele>103.0</ele><time>2026-04-18T08:49:29.987Z</time></trkpt><trkpt lat="45.3889267" lon="9.1060633"><ele>103.0</ele><time>2026-04-18T08:49:30.987Z</time></trkpt><trkpt lat="45.3888667" lon="9.10591"><ele>103.5</ele><time>2026-04-18T08:49:31.987Z</time></trkpt><trkpt lat="45.3887983" lon="9.1057467"><ele>104.0</ele><time>2026-04-18T08:49:32.987Z</time></trkpt><trkpt lat="45.3887217" lon="9.1055817"><ele>104.5</ele><time>2026-04-18T08:49:33.987Z</time></trkpt><trkpt lat="45.3886483" lon="9.1054167"><ele>105.0</ele><time>2026-04-18T08:49:34.987Z</time></trkpt><trkpt lat="45.3885767" lon="9.1052567"><ele>105.0</ele><time>2026-04-18T08:49:35.987Z</time></trkpt><trkpt lat="45.388495" lon="9.1050833"><ele>105.0</ele><time>2026-04-18T08:49:36.987Z</time></trkpt><trkpt lat="45.3884117" lon="9.1049133"><ele>105.0</ele><time>2026-04-18T08:49:37.987Z</time></trkpt><trkpt lat="45.388335" lon="9.1047617"><ele>105.0</ele><time>2026-04-18T08:49:38.987Z</time></trkpt><trkpt lat="45.3882667" lon="9.1046233"><ele>104.75</ele><time>2026-04-18T08:49:39.987Z</time></trkpt><trkpt lat="45.3881967" lon="9.1044917"><ele>104.5</ele><time>2026-04-18T08:49:40.987Z</time></trkpt><trkpt lat="45.38813" lon="9.10435"><ele>104.25</ele><time>2026-04-18T08:49:41.987Z</time></trkpt><trkpt lat="45.38806" lon="9.104215"><ele>104.0</ele><time>2026-04-18T08:49:42.987Z</time></trkpt><trkpt lat="45.3879967" lon="9.104095"><ele>103.6</ele><time>2026-04-18T08:49:43.987Z</time></trkpt><trkpt lat="45.387935" lon="9.1039767"><ele>103.2</ele><time>2026-04-18T08:49:44.987Z</time></trkpt><trkpt lat="45.3878733" lon="9.1038733"><ele>102.8</ele><time>2026-04-18T08:49:45.987Z</time></trkpt><trkpt lat="45.38783" lon="9.1037867"><ele>102.39999999999999</ele><time>2026-04-18T08:49:46.988Z</time></trkpt><trkpt lat="45.3877817" lon="9.1036633"><ele>102.0</ele><time>2026-04-18T08:49:48.987Z</time></trkpt><trkpt lat="45.387735" lon="9.1035317"><ele>102.0</ele><time>2026-04-18T08:49:50.987Z</time></trkpt><trkpt lat="45.3877033" lon="9.1034533"><ele>102.0</ele><time>2026-04-18T08:49:51.987Z</time></trkpt><trkpt lat="45.3876233" lon="9.1033083"><ele>102.0</ele><time>2026-04-18T08:49:53.988Z</time></trkpt><trkpt lat="45.3875717" lon="9.10322"><ele>102.0</ele><time>2026-04-18T08:49:54.988Z</time></trkpt><trkpt lat="45.3875217" lon="9.1031267"><ele>102.0</ele><time>2026-04-18T08:49:55.987Z</time></trkpt><trkpt lat="45.387465" lon="9.10302"><ele>102.0</ele><time>2026-04-18T08:49:56.987Z</time></trkpt><trkpt lat="45.3874067" lon="9.1029033"><ele>102.0</ele><time>2026-04-18T08:49:57.988Z</time></trkpt><trkpt lat="45.3873417" lon="9.10278"><ele>102.0</ele><time>2026-04-18T08:49:58.987Z</time></trkpt><trkpt lat="45.3872783" lon="9.1026433"><ele>102.0</ele><time>2026-04-18T08:49:59.987Z</time></trkpt><trkpt lat="45.3872067" lon="9.102505"><ele>102.0</ele><time>2026-04-18T08:50:00.988Z</time></trkpt><trkpt lat="45.38713" lon="9.10236"><ele>102.0</ele><time>2026-04-18T08:50:01.987Z</time></trkpt><trkpt lat="45.38706" lon="9.1022217"><ele>102.0</ele><time>2026-04-18T08:50:02.987Z</time></trkpt><trkpt lat="45.386995" lon="9.10209"><ele>102.0</ele><time>2026-04-18T08:50:03.987Z</time></trkpt><trkpt lat="45.3869283" lon="9.1019617"><ele>102.0</ele><time>2026-04-18T08:50:04.987Z</time></trkpt><trkpt lat="45.3868683" lon="9.1018267"><ele>102.0</ele><time>2026-04-18T08:50:05.987Z</time></trkpt><trkpt lat="45.3868033" lon="9.1016983"><ele>102.0</ele><time>2026-04-18T08:50:06.987Z</time></trkpt><trkpt lat="45.3867367" lon="9.1015833"><ele>102.0</ele><time>2026-04-18T08:50:07.987Z</time></trkpt><trkpt lat="45.38668" lon="9.1014633"><ele>102.0</ele><time>2026-04-18T08:50:08.987Z</time></trkpt><trkpt lat="45.3866267" lon="9.101345"><ele>102.0</ele><time>2026-04-18T08:50:09.988Z</time></trkpt><trkpt lat="45.3865633" lon="9.1012267"><ele>102.0</ele><time>2026-04-18T08:50:10.987Z</time></trkpt><trkpt lat="45.3865017" lon="9.10111"><ele>102.0</ele><time>2026-04-18T08:50:11.987Z</time></trkpt><trkpt lat="45.3864417" lon="9.1009967"><ele>102.0</ele><time>2026-04-18T08:50:12.988Z</time></trkpt><trkpt lat="45.386385" lon="9.1008883"><ele>102.0</ele><time>2026-04-18T08:50:13.987Z</time></trkpt><trkpt lat="45.3863333" lon="9.1007933"><ele>102.0</ele><time>2026-04-18T08:50:14.987Z</time></trkpt><trkpt lat="45.3862883" lon="9.1007083"><ele>102.16666666666667</ele><time>2026-04-18T08:50:15.987Z</time></trkpt><trkpt lat="45.3862467" lon="9.1006167"><ele>102.33333333333334</ele><time>2026-04-18T08:50:16.987Z</time></trkpt><trkpt lat="45.3862" lon="9.1005183"><ele>102.5</ele><time>2026-04-18T08:50:17.987Z</time></trkpt><trkpt lat="45.3861517" lon="9.1004283"><ele>102.66666666666667</ele><time>2026-04-18T08:50:18.987Z</time></trkpt><trkpt lat="45.386105" lon="9.1003233"><ele>102.83333333333334</ele><time>2026-04-18T08:50:19.987Z</time></trkpt><trkpt lat="45.3860567" lon="9.1002267"><ele>103.0</ele><time>2026-04-18T08:50:20.987Z</time></trkpt><trkpt lat="45.386" lon="9.1001417"><ele>103.00000000000001</ele><time>2026-04-18T08:50:21.987Z</time></trkpt><trkpt lat="45.3859467" lon="9.1000567"><ele>103.0</ele><time>2026-04-18T08:50:22.988Z</time></trkpt><trkpt lat="45.385905" lon="9.0999683"><ele>103.0</ele><time>2026-04-18T08:50:23.987Z</time></trkpt><trkpt lat="45.3858633" lon="9.0998583"><ele>103.0</ele><time>2026-04-18T08:50:24.987Z</time></trkpt><trkpt lat="45.3858067" lon="9.0997433"><ele>103.00000000000001</ele><time>2026-04-18T08:50:25.987Z</time></trkpt><trkpt lat="45.385755" lon="9.09963"><ele>103.0</ele><time>2026-04-18T08:50:26.987Z</time></trkpt><trkpt lat="45.3857" lon="9.099505"><ele>103.2</ele><time>2026-04-18T08:50:27.987Z</time></trkpt><trkpt lat="45.3856433" lon="9.0993933"><ele>103.4</ele><time>2026-04-18T08:50:28.987Z</time></trkpt><trkpt lat="45.3855767" lon="9.099295"><ele>103.60000000000001</ele><time>2026-04-18T08:50:29.987Z</time></trkpt><trkpt lat="45.3855067" lon="9.0991767"><ele>103.80000000000001</ele><time>2026-04-18T08:50:30.987Z</time></trkpt><trkpt lat="45.3854383" lon="9.0990533"><ele>104.0</ele><time>2026-04-18T08:50:31.987Z</time></trkpt><trkpt lat="45.3853817" lon="9.098935"><ele>104.2</ele><time>2026-04-18T08:50:32.987Z</time></trkpt><trkpt lat="45.3853267" lon="9.09881"><ele>104.4</ele><time>2026-04-18T08:50:33.987Z</time></trkpt><trkpt lat="45.3852767" lon="9.0986967"><ele>104.6</ele><time>2026-04-18T08:50:34.987Z</time></trkpt><trkpt lat="45.38522" lon="9.0985817"><ele>104.8</ele><time>2026-04-18T08:50:35.988Z</time></trkpt><trkpt lat="45.385165" lon="9.0984767"><ele>105.0</ele><time>2026-04-18T08:50:36.988Z</time></trkpt><trkpt lat="45.3851083" lon="9.098365"><ele>104.8</ele><time>2026-04-18T08:50:37.987Z</time></trkpt><trkpt lat="45.38506" lon="9.0982367"><ele>104.6</ele><time>2026-04-18T08:50:38.987Z</time></trkpt><trkpt lat="45.3850017" lon="9.0981083"><ele>104.4</ele><time>2026-04-18T08:50:39.987Z</time></trkpt><trkpt lat="45.3849367" lon="9.0979817"><ele>104.2</ele><time>2026-04-18T08:50:40.987Z</time></trkpt><trkpt lat="45.384865" lon="9.097855"><ele>104.0</ele><time>2026-04-18T08:50:41.987Z</time></trkpt><trkpt lat="45.38479" lon="9.097715"><ele>104.0</ele><time>2026-04-18T08:50:42.987Z</time></trkpt><trkpt lat="45.3847217" lon="9.0975833"><ele>104.0</ele><time>2026-04-18T08:50:43.987Z</time></trkpt><trkpt lat="45.3846633" lon="9.0974567"><ele>104.0</ele><time>2026-04-18T08:50:44.987Z</time></trkpt><trkpt lat="45.3846067" lon="9.0973417"><ele>104.0</ele><time>2026-04-18T08:50:45.987Z</time></trkpt><trkpt lat="45.38457" lon="9.0972283"><ele>104.0</ele><time>2026-04-18T08:50:46.987Z</time></trkpt><trkpt lat="45.384525" lon="9.0971283"><ele>104.16666666666666</ele><time>2026-04-18T08:50:47.987Z</time></trkpt><trkpt lat="45.3844733" lon="9.0970383"><ele>104.33333333333333</ele><time>2026-04-18T08:50:48.987Z</time></trkpt><trkpt lat="45.38442" lon="9.0969817"><ele>104.5</ele><time>2026-04-18T08:50:49.987Z</time></trkpt><trkpt lat="45.3843467" lon="9.0969567"><ele>104.66666666666666</ele><time>2026-04-18T08:50:50.987Z</time></trkpt><trkpt lat="45.384275" lon="9.0969767"><ele>104.83333333333333</ele><time>2026-04-18T08:50:51.987Z</time></trkpt><trkpt lat="45.3841983" lon="9.097045"><ele>105.0</ele><time>2026-04-18T08:50:52.987Z</time></trkpt><trkpt lat="45.3841217" lon="9.09714"><ele>105.0</ele><time>2026-04-18T08:50:53.987Z</time></trkpt><trkpt lat="45.3840417" lon="9.0972417"><ele>105.0</ele><time>2026-04-18T08:50:54.987Z</time></trkpt><trkpt lat="45.38397" lon="9.09733"><ele>105.0</ele><time>2026-04-18T08:50:55.987Z</time></trkpt><trkpt lat="45.3839017" lon="9.0974083"><ele>105.0</ele><time>2026-04-18T08:50:56.987Z</time></trkpt><trkpt lat="45.383835" lon="9.09748"><ele>105.0</ele><time>2026-04-18T08:50:57.987Z</time></trkpt><trkpt lat="45.3837667" lon="9.0975633"><ele>105.0</ele><time>2026-04-18T08:50:58.987Z</time></trkpt><trkpt lat="45.3836883" lon="9.0976517"><ele>105.0</ele><time>2026-04-18T08:50:59.987Z</time></trkpt><trkpt lat="45.3836067" lon="9.097745"><ele>105.0</ele><time>2026-04-18T08:51:00.987Z</time></trkpt><trkpt lat="45.3835233" lon="9.09784"><ele>105.0</ele><time>2026-04-18T08:51:01.988Z</time></trkpt><trkpt lat="45.38345" lon="9.097925"><ele>105.0</ele><time>2026-04-18T08:51:02.987Z</time></trkpt><trkpt lat="45.3833833" lon="9.0979983"><ele>105.0</ele><time>2026-04-18T08:51:03.987Z</time></trkpt><trkpt lat="45.3833283" lon="9.0980633"><ele>105.0</ele><time>2026-04-18T08:51:04.987Z</time></trkpt><trkpt lat="45.3832783" lon="9.09813"><ele>105.0</ele><time>2026-04-18T08:51:05.987Z</time></trkpt><trkpt lat="45.38323" lon="9.09819"><ele>105.0</ele><time>2026-04-18T08:51:06.987Z</time></trkpt><trkpt lat="45.383135" lon="9.09827"><ele>105.0</ele><time>2026-04-18T08:51:08.987Z</time></trkpt><trkpt lat="45.383045" lon="9.09823"><ele>105.0</ele><time>2026-04-18T08:51:10.988Z</time></trkpt><trkpt lat="45.383015" lon="9.0981483"><ele>105.16666666666667</ele><time>2026-04-18T08:51:11.987Z</time></trkpt><trkpt lat="45.3829867" lon="9.0980533"><ele>105.33333333333334</ele><time>2026-04-18T08:51:12.987Z</time></trkpt><trkpt lat="45.3829533" lon="9.09797"><ele>105.5</ele><time>2026-04-18T08:51:13.987Z</time></trkpt><trkpt lat="45.3828933" lon="9.0978483"><ele>105.66666666666667</ele><time>2026-04-18T08:51:15.987Z</time></trkpt><trkpt lat="45.3827917" lon="9.09782"><ele>105.83333333333334</ele><time>2026-04-18T08:51:17.987Z</time></trkpt><trkpt lat="45.3827283" lon="9.0978633"><ele>106.0</ele><time>2026-04-18T08:51:18.987Z</time></trkpt><trkpt lat="45.3826633" lon="9.0979233"><ele>106.0</ele><time>2026-04-18T08:51:19.987Z</time></trkpt><trkpt lat="45.382595" lon="9.097985"><ele>106.0</ele><time>2026-04-18T08:51:20.987Z</time></trkpt><trkpt lat="45.3825167" lon="9.0980583"><ele>106.0</ele><time>2026-04-18T08:51:21.987Z</time></trkpt><trkpt lat="45.3824367" lon="9.0981367"><ele>106.0</ele><time>2026-04-18T08:51:22.987Z</time></trkpt><trkpt lat="45.382355" lon="9.09822"><ele>106.0</ele><time>2026-04-18T08:51:23.987Z</time></trkpt><trkpt lat="45.3822733" lon="9.0982967"><ele>105.8</ele><time>2026-04-18T08:51:24.987Z</time></trkpt><trkpt lat="45.3821967" lon="9.098375"><ele>105.6</ele><time>2026-04-18T08:51:25.987Z</time></trkpt><trkpt lat="45.3821183" lon="9.0984567"><ele>105.4</ele><time>2026-04-18T08:51:26.987Z</time></trkpt><trkpt lat="45.3820317" lon="9.0985333"><ele>105.2</ele><time>2026-04-18T08:51:27.987Z</time></trkpt><trkpt lat="45.3819517" lon="9.0986167"><ele>105.0</ele><time>2026-04-18T08:51:28.987Z</time></trkpt><trkpt lat="45.381875" lon="9.0987183"><ele>104.8</ele><time>2026-04-18T08:51:29.987Z</time></trkpt><trkpt lat="45.3818033" lon="9.0988"><ele>104.6</ele><time>2026-04-18T08:51:30.987Z</time></trkpt><trkpt lat="45.381735" lon="9.098885"><ele>104.4</ele><time>2026-04-18T08:51:31.987Z</time></trkpt><trkpt lat="45.3816517" lon="9.0989533"><ele>104.2</ele><time>2026-04-18T08:51:32.988Z</time></trkpt><trkpt lat="45.38157" lon="9.0990317"><ele>104.0</ele><time>2026-04-18T08:51:33.987Z</time></trkpt><trkpt lat="45.3814883" lon="9.099115"><ele>104.0</ele><time>2026-04-18T08:51:34.987Z</time></trkpt><trkpt lat="45.381415" lon="9.0991917"><ele>104.0</ele><time>2026-04-18T08:51:35.987Z</time></trkpt><trkpt lat="45.3813483" lon="9.0992583"><ele>104.0</ele><time>2026-04-18T08:51:36.987Z</time></trkpt><trkpt lat="45.3812933" lon="9.0993067"><ele>104.0</ele><time>2026-04-18T08:51:37.988Z</time></trkpt><trkpt lat="45.3811717" lon="9.0992467"><ele>104.0</ele><time>2026-04-18T08:51:39.988Z</time></trkpt><trkpt lat="45.3811133" lon="9.0991567"><ele>104.33333333333333</ele><time>2026-04-18T08:51:40.987Z</time></trkpt><trkpt lat="45.3810467" lon="9.0990517"><ele>104.66666666666666</ele><time>2026-04-18T08:51:41.987Z</time></trkpt><trkpt lat="45.3809817" lon="9.0989583"><ele>105.0</ele><time>2026-04-18T08:51:42.987Z</time></trkpt><trkpt lat="45.380925" lon="9.098885"><ele>105.33333333333334</ele><time>2026-04-18T08:51:43.987Z</time></trkpt><trkpt lat="45.3808617" lon="9.0988383"><ele>105.66666666666667</ele><time>2026-04-18T08:51:44.987Z</time></trkpt><trkpt lat="45.3807967" lon="9.0988317"><ele>106.0</ele><time>2026-04-18T08:51:45.987Z</time></trkpt><trkpt lat="45.380735" lon="9.098875"><ele>106.0</ele><time>2026-04-18T08:51:46.987Z</time></trkpt><trkpt lat="45.3806583" lon="9.0989367"><ele>106.0</ele><time>2026-04-18T08:51:47.987Z</time></trkpt><trkpt lat="45.3805617" lon="9.09901"><ele>106.0</ele><time>2026-04-18T08:51:48.987Z</time></trkpt><trkpt lat="45.38047" lon="9.0990717"><ele>106.0</ele><time>2026-04-18T08:51:49.987Z</time></trkpt><trkpt lat="45.380405" lon="9.0991233"><ele>106.0</ele><time>2026-04-18T08:51:50.987Z</time></trkpt><trkpt lat="45.3803117" lon="9.0991967"><ele>106.00000000000001</ele><time>2026-04-18T08:51:52.987Z</time></trkpt><trkpt lat="45.38023" lon="9.0991667"><ele>106.0</ele><time>2026-04-18T08:51:54.987Z</time></trkpt><trkpt lat="45.38016" lon="9.0990283"><ele>106.0</ele><time>2026-04-18T08:51:56.987Z</time></trkpt><trkpt lat="45.3801167" lon="9.0989317"><ele>106.0</ele><time>2026-04-18T08:51:58.987Z</time></trkpt><trkpt lat="45.38008" lon="9.0988567"><ele>106.00000000000001</ele><time>2026-04-18T08:52:00.987Z</time></trkpt><trkpt lat="45.3800517" lon="9.0987567"><ele>106.0</ele><time>2026-04-18T08:52:03.987Z</time></trkpt><trkpt lat="45.3800017" lon="9.098685"><ele>106.0</ele><time>2026-04-18T08:52:23.987Z</time></trkpt><trkpt lat="45.3799883" lon="9.098575"><ele>106.0</ele><time>2026-04-18T08:52:25.987Z</time></trkpt><trkpt lat="45.3800633" lon="9.0984333"><ele>106.0</ele><time>2026-04-18T08:52:27.987Z</time></trkpt><trkpt lat="45.3801217" lon="9.098365"><ele>106.0</ele><time>2026-04-18T08:52:28.987Z</time></trkpt><trkpt lat="45.3802033" lon="9.0982983"><ele>106.0</ele><time>2026-04-18T08:52:29.987Z</time></trkpt><trkpt lat="45.3802933" lon="9.098225"><ele>106.0</ele><time>2026-04-18T08:52:30.987Z</time></trkpt><trkpt lat="45.380375" lon="9.0981567"><ele>106.0</ele><time>2026-04-18T08:52:31.987Z</time></trkpt><trkpt lat="45.3804667" lon="9.0980733"><ele>106.0</ele><time>2026-04-18T08:52:32.987Z</time></trkpt><trkpt lat="45.380555" lon="9.09799"><ele>106.0</ele><time>2026-04-18T08:52:33.987Z</time></trkpt><trkpt lat="45.3806417" lon="9.0979067"><ele>106.0</ele><time>2026-04-18T08:52:34.987Z</time></trkpt><trkpt lat="45.380725" lon="9.0978367"><ele>106.00000000000001</ele><time>2026-04-18T08:52:35.987Z</time></trkpt><trkpt lat="45.380805" lon="9.09777"><ele>106.0</ele><time>2026-04-18T08:52:36.987Z</time></trkpt><trkpt lat="45.3808767" lon="9.0977033"><ele>106.0</ele><time>2026-04-18T08:52:37.987Z</time></trkpt><trkpt lat="45.3809283" lon="9.0976133"><ele>106.0</ele><time>2026-04-18T08:52:38.987Z</time></trkpt><trkpt lat="45.3809567" lon="9.0975233"><ele>106.00000000000001</ele><time>2026-04-18T08:52:39.987Z</time></trkpt><trkpt lat="45.38095" lon="9.097415"><ele>106.0</ele><time>2026-04-18T08:52:40.987Z</time></trkpt><trkpt lat="45.3809067" lon="9.0972817"><ele>106.0</ele><time>2026-04-18T08:52:41.987Z</time></trkpt><trkpt lat="45.3808417" lon="9.0971433"><ele>106.0</ele><time>2026-04-18T08:52:42.987Z</time></trkpt><trkpt lat="45.380775" lon="9.096995"><ele>106.0</ele><time>2026-04-18T08:52:43.987Z</time></trkpt><trkpt lat="45.3807283" lon="9.0968517"><ele>106.0</ele><time>2026-04-18T08:52:44.987Z</time></trkpt><trkpt lat="45.3806883" lon="9.0967283"><ele>106.0</ele><time>2026-04-18T08:52:45.987Z</time></trkpt><trkpt lat="45.3806533" lon="9.096635"><ele>105.83333333333334</ele><time>2026-04-18T08:52:46.987Z</time></trkpt><trkpt lat="45.3806167" lon="9.0964867"><ele>105.66666666666667</ele><time>2026-04-18T08:52:48.988Z</time></trkpt><trkpt lat="45.3806233" lon="9.096345"><ele>105.5</ele><time>2026-04-18T08:52:50.987Z</time></trkpt><trkpt lat="45.380655" lon="9.096265"><ele>105.33333333333334</ele><time>2026-04-18T08:52:51.987Z</time></trkpt><trkpt lat="45.3807033" lon="9.0961817"><ele>105.16666666666667</ele><time>2026-04-18T08:52:52.987Z</time></trkpt><trkpt lat="45.3807533" lon="9.096105"><ele>105.0</ele><time>2026-04-18T08:52:53.987Z</time></trkpt><trkpt lat="45.3808333" lon="9.0960383"><ele>105.0</ele><time>2026-04-18T08:52:54.987Z</time></trkpt><trkpt lat="45.3809267" lon="9.095965"><ele>105.0</ele><time>2026-04-18T08:52:55.987Z</time></trkpt><trkpt lat="45.3810317" lon="9.0958933"><ele>105.0</ele><time>2026-04-18T08:52:56.987Z</time></trkpt><trkpt lat="45.3811417" lon="9.0958183"><ele>105.0</ele><time>2026-04-18T08:52:57.987Z</time></trkpt><trkpt lat="45.3812533" lon="9.0957317"><ele>104.75</ele><time>2026-04-18T08:52:58.987Z</time></trkpt><trkpt lat="45.38137" lon="9.0956417"><ele>104.5</ele><time>2026-04-18T08:52:59.987Z</time></trkpt><trkpt lat="45.3814817" lon="9.09555"><ele>104.25</ele><time>2026-04-18T08:53:00.987Z</time></trkpt><trkpt lat="45.3815933" lon="9.0954517"><ele>104.0</ele><time>2026-04-18T08:53:01.987Z</time></trkpt><trkpt lat="45.3817017" lon="9.095345"><ele>104.0</ele><time>2026-04-18T08:53:02.987Z</time></trkpt><trkpt lat="45.3818133" lon="9.0952383"><ele>104.0</ele><time>2026-04-18T08:53:03.987Z</time></trkpt><trkpt lat="45.3819283" lon="9.095115"><ele>104.0</ele><time>2026-04-18T08:53:04.987Z</time></trkpt><trkpt lat="45.3820383" lon="9.09498"><ele>104.0</ele><time>2026-04-18T08:53:05.987Z</time></trkpt><trkpt lat="45.3821567" lon="9.0948533"><ele>103.75</ele><time>2026-04-18T08:53:06.987Z</time></trkpt><trkpt lat="45.3822617" lon="9.0947417"><ele>103.5</ele><time>2026-04-18T08:53:07.987Z</time></trkpt><trkpt lat="45.3823583" lon="9.0946367"><ele>103.25</ele><time>2026-04-18T08:53:08.987Z</time></trkpt><trkpt lat="45.3824583" lon="9.09454"><ele>103.0</ele><time>2026-04-18T08:53:09.987Z</time></trkpt><trkpt lat="45.3825567" lon="9.094435"><ele>103.0</ele><time>2026-04-18T08:53:10.987Z</time></trkpt><trkpt lat="45.382655" lon="9.0943417"><ele>103.0</ele><time>2026-04-18T08:53:11.987Z</time></trkpt><trkpt lat="45.3827383" lon="9.094245"><ele>103.0</ele><time>2026-04-18T08:53:12.987Z</time></trkpt><trkpt lat="45.3828217" lon="9.0941533"><ele>103.0</ele><time>2026-04-18T08:53:13.987Z</time></trkpt><trkpt lat="45.3829067" lon="9.0940617"><ele>103.0</ele><time>2026-04-18T08:53:14.987Z</time></trkpt><trkpt lat="45.3829833" lon="9.093975"><ele>104.0</ele><time>2026-04-18T08:53:15.988Z</time></trkpt><trkpt lat="45.38307" lon="9.0938883"><ele>105.0</ele><time>2026-04-18T08:53:16.987Z</time></trkpt><trkpt lat="45.3831667" lon="9.0938"><ele>106.0</ele><time>2026-04-18T08:53:17.987Z</time></trkpt><trkpt lat="45.38326" lon="9.0937067"><ele>107.0</ele><time>2026-04-18T08:53:18.987Z</time></trkpt><trkpt lat="45.3833583" lon="9.0936133"><ele>107.0</ele><time>2026-04-18T08:53:19.987Z</time></trkpt><trkpt lat="45.38347" lon="9.0935117"><ele>107.0</ele><time>2026-04-18T08:53:20.987Z</time></trkpt><trkpt lat="45.3835867" lon="9.0934167"><ele>107.0</ele><time>2026-04-18T08:53:21.987Z</time></trkpt><trkpt lat="45.38369" lon="9.0933283"><ele>107.0</ele><time>2026-04-18T08:53:22.987Z</time></trkpt><trkpt lat="45.383805" lon="9.0932333"><ele>106.25</ele><time>2026-04-18T08:53:23.987Z</time></trkpt><trkpt lat="45.383925" lon="9.093135"><ele>105.5</ele><time>2026-04-18T08:53:24.987Z</time></trkpt><trkpt lat="45.3840567" lon="9.0930283"><ele>104.75</ele><time>2026-04-18T08:53:25.987Z</time></trkpt><trkpt lat="45.3841883" lon="9.09292"><ele>104.0</ele><time>2026-04-18T08:53:26.988Z</time></trkpt><trkpt lat="45.38432" lon="9.0928133"><ele>104.0</ele><time>2026-04-18T08:53:27.987Z</time></trkpt><trkpt lat="45.38445" lon="9.0927117"><ele>104.0</ele><time>2026-04-18T08:53:28.987Z</time></trkpt><trkpt lat="45.3845783" lon="9.0926067"><ele>104.0</ele><time>2026-04-18T08:53:29.987Z</time></trkpt><trkpt lat="45.3847017" lon="9.0925017"><ele>104.0</ele><time>2026-04-18T08:53:30.987Z</time></trkpt><trkpt lat="45.3848217" lon="9.09241"><ele>104.5</ele><time>2026-04-18T08:53:31.987Z</time></trkpt><trkpt lat="45.3849333" lon="9.09232"><ele>105.0</ele><time>2026-04-18T08:53:32.987Z</time></trkpt><trkpt lat="45.3850517" lon="9.092225"><ele>105.5</ele><time>2026-04-18T08:53:33.987Z</time></trkpt><trkpt lat="45.3851717" lon="9.0921333"><ele>106.0</ele><time>2026-04-18T08:53:34.987Z</time></trkpt><trkpt lat="45.38529" lon="9.0920417"><ele>106.0</ele><time>2026-04-18T08:53:35.987Z</time></trkpt><trkpt lat="45.3854133" lon="9.0919483"><ele>106.0</ele><time>2026-04-18T08:53:36.987Z</time></trkpt><trkpt lat="45.385535" lon="9.0918567"><ele>106.0</ele><time>2026-04-18T08:53:37.987Z</time></trkpt><trkpt lat="45.3856467" lon="9.0917733"><ele>106.0</ele><time>2026-04-18T08:53:38.987Z</time></trkpt><trkpt lat="45.3857583" lon="9.091695"><ele>106.0</ele><time>2026-04-18T08:53:39.988Z</time></trkpt><trkpt lat="45.385875" lon="9.0916217"><ele>106.0</ele><time>2026-04-18T08:53:40.987Z</time></trkpt><trkpt lat="45.3859867" lon="9.0915483"><ele>106.0</ele><time>2026-04-18T08:53:41.987Z</time></trkpt><trkpt lat="45.3861133" lon="9.0914833"><ele>106.0</ele><time>2026-04-18T08:53:42.987Z</time></trkpt><trkpt lat="45.3862433" lon="9.091415"><ele>106.0</ele><time>2026-04-18T08:53:43.987Z</time></trkpt><trkpt lat="45.3863783" lon="9.0913217"><ele>106.0</ele><time>2026-04-18T08:53:44.987Z</time></trkpt><trkpt lat="45.3865117" lon="9.09124"><ele>106.0</ele><time>2026-04-18T08:53:45.987Z</time></trkpt><trkpt lat="45.3866467" lon="9.0911517"><ele>106.0</ele><time>2026-04-18T08:53:46.987Z</time></trkpt><trkpt lat="45.3867833" lon="9.0910633"><ele>106.0</ele><time>2026-04-18T08:53:47.987Z</time></trkpt><trkpt lat="45.3869217" lon="9.0909767"><ele>106.0</ele><time>2026-04-18T08:53:48.987Z</time></trkpt><trkpt lat="45.3870633" lon="9.0908933"><ele>106.0</ele><time>2026-04-18T08:53:49.987Z</time></trkpt><trkpt lat="45.3871967" lon="9.090815"><ele>106.0</ele><time>2026-04-18T08:53:50.987Z</time></trkpt><trkpt lat="45.3873333" lon="9.0907367"><ele>105.75</ele><time>2026-04-18T08:53:51.987Z</time></trkpt><trkpt lat="45.38746" lon="9.0906617"><ele>105.5</ele><time>2026-04-18T08:53:52.987Z</time></trkpt><trkpt lat="45.38758" lon="9.09059"><ele>105.25</ele><time>2026-04-18T08:53:53.987Z</time></trkpt><trkpt lat="45.3877033" lon="9.09052"><ele>105.0</ele><time>2026-04-18T08:53:54.987Z</time></trkpt><trkpt lat="45.3878233" lon="9.0904467"><ele>105.0</ele><time>2026-04-18T08:53:55.987Z</time></trkpt><trkpt lat="45.387945" lon="9.090375"><ele>105.0</ele><time>2026-04-18T08:53:56.987Z</time></trkpt><trkpt lat="45.3880717" lon="9.0903"><ele>105.0</ele><time>2026-04-18T08:53:57.987Z</time></trkpt><trkpt lat="45.3881967" lon="9.0902217"><ele>105.0</ele><time>2026-04-18T08:53:58.987Z</time></trkpt><trkpt lat="45.3883217" lon="9.09015"><ele>105.0</ele><time>2026-04-18T08:53:59.987Z</time></trkpt><trkpt lat="45.3884467" lon="9.09007"><ele>105.0</ele><time>2026-04-18T08:54:00.987Z</time></trkpt><trkpt lat="45.3885667" lon="9.0899867"><ele>105.0</ele><time>2026-04-18T08:54:01.988Z</time></trkpt><trkpt lat="45.3886883" lon="9.0899067"><ele>105.0</ele><time>2026-04-18T08:54:02.987Z</time></trkpt><trkpt lat="45.3888133" lon="9.08983"><ele>105.0</ele><time>2026-04-18T08:54:03.987Z</time></trkpt><trkpt lat="45.3889383" lon="9.0897567"><ele>105.0</ele><time>2026-04-18T08:54:04.987Z</time></trkpt><trkpt lat="45.3890633" lon="9.0896867"><ele>105.0</ele><time>2026-04-18T08:54:05.987Z</time></trkpt><trkpt lat="45.3891833" lon="9.089615"><ele>105.0</ele><time>2026-04-18T08:54:06.987Z</time></trkpt><trkpt lat="45.3893" lon="9.08955"><ele>105.0</ele><time>2026-04-18T08:54:07.987Z</time></trkpt><trkpt lat="45.389425" lon="9.0894733"><ele>105.0</ele><time>2026-04-18T08:54:08.987Z</time></trkpt><trkpt lat="45.3895517" lon="9.0893983"><ele>105.0</ele><time>2026-04-18T08:54:09.987Z</time></trkpt><trkpt lat="45.38968" lon="9.0893183"><ele>105.0</ele><time>2026-04-18T08:54:10.987Z</time></trkpt><trkpt lat="45.3898067" lon="9.08924"><ele>105.25</ele><time>2026-04-18T08:54:11.987Z</time></trkpt><trkpt lat="45.3899383" lon="9.0891667"><ele>105.5</ele><time>2026-04-18T08:54:12.987Z</time></trkpt><trkpt lat="45.390075" lon="9.089085"><ele>105.75</ele><time>2026-04-18T08:54:13.987Z</time></trkpt><trkpt lat="45.3902117" lon="9.089005"><ele>106.0</ele><time>2026-04-18T08:54:14.988Z</time></trkpt><trkpt lat="45.3903483" lon="9.088925"><ele>106.0</ele><time>2026-04-18T08:54:15.987Z</time></trkpt><trkpt lat="45.3904767" lon="9.0888483"><ele>106.0</ele><time>2026-04-18T08:54:16.987Z</time></trkpt><trkpt lat="45.39061" lon="9.088765"><ele>106.0</ele><time>2026-04-18T08:54:17.987Z</time></trkpt><trkpt lat="45.3907417" lon="9.0886883"><ele>106.0</ele><time>2026-04-18T08:54:18.987Z</time></trkpt><trkpt lat="45.390875" lon="9.0886033"><ele>105.75</ele><time>2026-04-18T08:54:19.987Z</time></trkpt><trkpt lat="45.3910117" lon="9.0885183"><ele>105.5</ele><time>2026-04-18T08:54:20.987Z</time></trkpt><trkpt lat="45.3911417" lon="9.0884383"><ele>105.25</ele><time>2026-04-18T08:54:21.987Z</time></trkpt><trkpt lat="45.3912733" lon="9.0883633"><ele>105.0</ele><time>2026-04-18T08:54:22.987Z</time></trkpt><trkpt lat="45.3914083" lon="9.0882833"><ele>105.0</ele><time>2026-04-18T08:54:23.987Z</time></trkpt><trkpt lat="45.3915417" lon="9.0882017"><ele>105.0</ele><time>2026-04-18T08:54:24.987Z</time></trkpt><trkpt lat="45.39168" lon="9.088115"><ele>105.0</ele><time>2026-04-18T08:54:25.987Z</time></trkpt><trkpt lat="45.3918117" lon="9.08802"><ele>105.0</ele><time>2026-04-18T08:54:26.987Z</time></trkpt><trkpt lat="45.391945" lon="9.087915"><ele>105.0</ele><time>2026-04-18T08:54:27.988Z</time></trkpt><trkpt lat="45.39207" lon="9.0878067"><ele>105.0</ele><time>2026-04-18T08:54:28.987Z</time></trkpt><trkpt lat="45.3922017" lon="9.0876933"><ele>105.0</ele><time>2026-04-18T08:54:29.987Z</time></trkpt><trkpt lat="45.3923333" lon="9.0875733"><ele>105.0</ele><time>2026-04-18T08:54:30.987Z</time></trkpt><trkpt lat="45.3924583" lon="9.08746"><ele>105.0</ele><time>2026-04-18T08:54:31.987Z</time></trkpt><trkpt lat="45.3925833" lon="9.087345"><ele>105.0</ele><time>2026-04-18T08:54:32.987Z</time></trkpt><trkpt lat="45.392715" lon="9.0872333"><ele>105.0</ele><time>2026-04-18T08:54:33.987Z</time></trkpt><trkpt lat="45.392845" lon="9.0871167"><ele>105.0</ele><time>2026-04-18T08:54:34.987Z</time></trkpt><trkpt lat="45.3929767" lon="9.0869967"><ele>105.0</ele><time>2026-04-18T08:54:35.987Z</time></trkpt><trkpt lat="45.3931083" lon="9.0868817"><ele>105.0</ele><time>2026-04-18T08:54:36.987Z</time></trkpt><trkpt lat="45.39324" lon="9.0867683"><ele>105.0</ele><time>2026-04-18T08:54:37.987Z</time></trkpt><trkpt lat="45.3933783" lon="9.0866583"><ele>105.0</ele><time>2026-04-18T08:54:38.987Z</time></trkpt><trkpt lat="45.3935117" lon="9.0865433"><ele>105.0</ele><time>2026-04-18T08:54:39.987Z</time></trkpt><trkpt lat="45.3936417" lon="9.0864317"><ele>105.0</ele><time>2026-04-18T08:54:40.987Z</time></trkpt><trkpt lat="45.3937717" lon="9.0863233"><ele>105.0</ele><time>2026-04-18T08:54:41.987Z</time></trkpt><trkpt lat="45.393905" lon="9.0862083"><ele>105.33333333333334</ele><time>2026-04-18T08:54:42.987Z</time></trkpt><trkpt lat="45.3940333" lon="9.0860967"><ele>105.66666666666667</ele><time>2026-04-18T08:54:43.988Z</time></trkpt><trkpt lat="45.39416" lon="9.0859817"><ele>106.0</ele><time>2026-04-18T08:54:44.988Z</time></trkpt><trkpt lat="45.3942867" lon="9.08587"><ele>106.0</ele><time>2026-04-18T08:54:45.987Z</time></trkpt><trkpt lat="45.39442" lon="9.0857583"><ele>106.0</ele><time>2026-04-18T08:54:46.988Z</time></trkpt><trkpt lat="45.394555" lon="9.0856417"><ele>106.0</ele><time>2026-04-18T08:54:47.987Z</time></trkpt><trkpt lat="45.394685" lon="9.0855233"><ele>106.0</ele><time>2026-04-18T08:54:48.987Z</time></trkpt><trkpt lat="45.394815" lon="9.0854117"><ele>106.0</ele><time>2026-04-18T08:54:49.987Z</time></trkpt><trkpt lat="45.3949417" lon="9.0852983"><ele>106.0</ele><time>2026-04-18T08:54:50.987Z</time></trkpt><trkpt lat="45.3950733" lon="9.0851783"><ele>106.0</ele><time>2026-04-18T08:54:51.988Z</time></trkpt><trkpt lat="45.3952067" lon="9.0850683"><ele>106.0</ele><time>2026-04-18T08:54:52.987Z</time></trkpt><trkpt lat="45.3953367" lon="9.0849533"><ele>106.0</ele><time>2026-04-18T08:54:53.987Z</time></trkpt><trkpt lat="45.3954733" lon="9.08483"><ele>106.66666666666667</ele><time>2026-04-18T08:54:54.987Z</time></trkpt><trkpt lat="45.3956083" lon="9.0847133"><ele>107.33333333333334</ele><time>2026-04-18T08:54:55.987Z</time></trkpt><trkpt lat="45.3957417" lon="9.0846017"><ele>108.0</ele><time>2026-04-18T08:54:56.987Z</time></trkpt><trkpt lat="45.3958783" lon="9.08448"><ele>108.0</ele><time>2026-04-18T08:54:57.987Z</time></trkpt><trkpt lat="45.39601" lon="9.0843617"><ele>108.0</ele><time>2026-04-18T08:54:58.987Z</time></trkpt><trkpt lat="45.3961433" lon="9.0842433"><ele>108.0</ele><time>2026-04-18T08:54:59.987Z</time></trkpt><trkpt lat="45.3962817" lon="9.0841317"><ele>108.0</ele><time>2026-04-18T08:55:00.987Z</time></trkpt><trkpt lat="45.3964133" lon="9.08402"><ele>108.0</ele><time>2026-04-18T08:55:01.988Z</time></trkpt><trkpt lat="45.3965517" lon="9.0839"><ele>108.0</ele><time>2026-04-18T08:55:02.987Z</time></trkpt><trkpt lat="45.3966917" lon="9.083785"><ele>108.0</ele><time>2026-04-18T08:55:03.987Z</time></trkpt><trkpt lat="45.39683" lon="9.0836633"><ele>108.0</ele><time>2026-04-18T08:55:04.987Z</time></trkpt><trkpt lat="45.39697" lon="9.0835483"><ele>108.0</ele><time>2026-04-18T08:55:05.987Z</time></trkpt><trkpt lat="45.3971067" lon="9.083425"><ele>108.33333333333334</ele><time>2026-04-18T08:55:06.987Z</time></trkpt><trkpt lat="45.3972417" lon="9.0833"><ele>108.66666666666667</ele><time>2026-04-18T08:55:07.988Z</time></trkpt><trkpt lat="45.3973867" lon="9.0831767"><ele>109.0</ele><time>2026-04-18T08:55:08.987Z</time></trkpt><trkpt lat="45.39753" lon="9.0830567"><ele>108.33333333333334</ele><time>2026-04-18T08:55:09.987Z</time></trkpt><trkpt lat="45.3976683" lon="9.0829383"><ele>107.66666666666666</ele><time>2026-04-18T08:55:10.987Z</time></trkpt><trkpt lat="45.3978017" lon="9.08282"><ele>107.0</ele><time>2026-04-18T08:55:11.987Z</time></trkpt><trkpt lat="45.397925" lon="9.0827083"><ele>107.0</ele><time>2026-04-18T08:55:12.987Z</time></trkpt><trkpt lat="45.3980567" lon="9.0825933"><ele>107.0</ele><time>2026-04-18T08:55:13.987Z</time></trkpt><trkpt lat="45.3981933" lon="9.0824733"><ele>107.0</ele><time>2026-04-18T08:55:14.987Z</time></trkpt><trkpt lat="45.3983283" lon="9.08236"><ele>106.66666666666666</ele><time>2026-04-18T08:55:15.987Z</time></trkpt><trkpt lat="45.3984617" lon="9.0822383"><ele>106.33333333333334</ele><time>2026-04-18T08:55:16.988Z</time></trkpt><trkpt lat="45.3985933" lon="9.0821283"><ele>106.0</ele><time>2026-04-18T08:55:17.987Z</time></trkpt><trkpt lat="45.3987217" lon="9.0820167"><ele>106.66666666666667</ele><time>2026-04-18T08:55:18.988Z</time></trkpt><trkpt lat="45.3988517" lon="9.0819017"><ele>107.33333333333334</ele><time>2026-04-18T08:55:19.987Z</time></trkpt><trkpt lat="45.3989783" lon="9.08179"><ele>108.0</ele><time>2026-04-18T08:55:20.987Z</time></trkpt><trkpt lat="45.3991083" lon="9.08168"><ele>107.5</ele><time>2026-04-18T08:55:21.987Z</time></trkpt><trkpt lat="45.399235" lon="9.0815717"><ele>107.0</ele><time>2026-04-18T08:55:22.987Z</time></trkpt><trkpt lat="45.3993533" lon="9.0814617"><ele>106.5</ele><time>2026-04-18T08:55:23.987Z</time></trkpt><trkpt lat="45.39947" lon="9.0813483"><ele>106.0</ele><time>2026-04-18T08:55:24.987Z</time></trkpt><trkpt lat="45.3995917" lon="9.081235"><ele>106.25</ele><time>2026-04-18T08:55:25.987Z</time></trkpt><trkpt lat="45.3997083" lon="9.081115"><ele>106.5</ele><time>2026-04-18T08:55:26.987Z</time></trkpt><trkpt lat="45.3998283" lon="9.0809933"><ele>106.75</ele><time>2026-04-18T08:55:27.987Z</time></trkpt><trkpt lat="45.3999367" lon="9.08085"><ele>107.0</ele><time>2026-04-18T08:55:28.987Z</time></trkpt><trkpt lat="45.400045" lon="9.0807"><ele>107.33333333333333</ele><time>2026-04-18T08:55:29.987Z</time></trkpt><trkpt lat="45.4001467" lon="9.0805467"><ele>107.66666666666666</ele><time>2026-04-18T08:55:30.987Z</time></trkpt><trkpt lat="45.400255" lon="9.0803733"><ele>108.0</ele><time>2026-04-18T08:55:31.987Z</time></trkpt><trkpt lat="45.400365" lon="9.0802033"><ele>108.0</ele><time>2026-04-18T08:55:32.987Z</time></trkpt><trkpt lat="45.4004783" lon="9.0800133"><ele>108.0</ele><time>2026-04-18T08:55:33.987Z</time></trkpt><trkpt lat="45.4005917" lon="9.07983"><ele>108.0</ele><time>2026-04-18T08:55:34.987Z</time></trkpt><trkpt lat="45.40071" lon="9.07965"><ele>108.33333333333334</ele><time>2026-04-18T08:55:35.987Z</time></trkpt><trkpt lat="45.400835" lon="9.0794717"><ele>108.66666666666667</ele><time>2026-04-18T08:55:36.987Z</time></trkpt><trkpt lat="45.400975" lon="9.0793167"><ele>109.0</ele><time>2026-04-18T08:55:37.987Z</time></trkpt><trkpt lat="45.4011133" lon="9.0791733"><ele>109.0</ele><time>2026-04-18T08:55:38.987Z</time></trkpt><trkpt lat="45.4012417" lon="9.0790517"><ele>109.0</ele><time>2026-04-18T08:55:39.987Z</time></trkpt><trkpt lat="45.40137" lon="9.0789383"><ele>109.0</ele><time>2026-04-18T08:55:40.987Z</time></trkpt><trkpt lat="45.4015033" lon="9.0788417"><ele>109.0</ele><time>2026-04-18T08:55:41.987Z</time></trkpt><trkpt lat="45.401625" lon="9.0787467"><ele>109.0</ele><time>2026-04-18T08:55:42.988Z</time></trkpt><trkpt lat="45.4017617" lon="9.078655"><ele>109.0</ele><time>2026-04-18T08:55:43.987Z</time></trkpt><trkpt lat="45.4018933" lon="9.0785517"><ele>109.0</ele><time>2026-04-18T08:55:44.988Z</time></trkpt><trkpt lat="45.4020367" lon="9.0784567"><ele>109.33333333333334</ele><time>2026-04-18T08:55:45.987Z</time></trkpt><trkpt lat="45.4021733" lon="9.0783383"><ele>109.66666666666666</ele><time>2026-04-18T08:55:46.988Z</time></trkpt><trkpt lat="45.4023167" lon="9.0782283"><ele>110.0</ele><time>2026-04-18T08:55:47.988Z</time></trkpt><trkpt lat="45.4024583" lon="9.0781133"><ele>110.33333333333333</ele><time>2026-04-18T08:55:48.987Z</time></trkpt><trkpt lat="45.4026083" lon="9.0780017"><ele>110.66666666666666</ele><time>2026-04-18T08:55:49.987Z</time></trkpt><trkpt lat="45.402755" lon="9.07788"><ele>111.0</ele><time>2026-04-18T08:55:50.987Z</time></trkpt><trkpt lat="45.402895" lon="9.0777683"><ele>111.33333333333334</ele><time>2026-04-18T08:55:51.987Z</time></trkpt><trkpt lat="45.4030417" lon="9.0776617"><ele>111.66666666666667</ele><time>2026-04-18T08:55:52.987Z</time></trkpt><trkpt lat="45.4031883" lon="9.0775467"><ele>112.0</ele><time>2026-04-18T08:55:53.987Z</time></trkpt><trkpt lat="45.4033267" lon="9.077435"><ele>111.33333333333334</ele><time>2026-04-18T08:55:54.987Z</time></trkpt><trkpt lat="45.40346" lon="9.0773"><ele>110.66666666666666</ele><time>2026-04-18T08:55:55.987Z</time></trkpt><trkpt lat="45.4036017" lon="9.0771517"><ele>110.0</ele><time>2026-04-18T08:55:56.987Z</time></trkpt><trkpt lat="45.4037317" lon="9.076985"><ele>110.33333333333333</ele><time>2026-04-18T08:55:57.988Z</time></trkpt><trkpt lat="45.40386" lon="9.0768183"><ele>110.66666666666666</ele><time>2026-04-18T08:55:58.987Z</time></trkpt><trkpt lat="45.4039817" lon="9.076645"><ele>111.0</ele><time>2026-04-18T08:55:59.987Z</time></trkpt><trkpt lat="45.4040983" lon="9.0764767"><ele>111.33333333333334</ele><time>2026-04-18T08:56:00.987Z</time></trkpt><trkpt lat="45.40422" lon="9.076305"><ele>111.66666666666667</ele><time>2026-04-18T08:56:01.987Z</time></trkpt><trkpt lat="45.4043483" lon="9.0761383"><ele>112.0</ele><time>2026-04-18T08:56:02.987Z</time></trkpt><trkpt lat="45.4044867" lon="9.075975"><ele>112.0</ele><time>2026-04-18T08:56:03.987Z</time></trkpt><trkpt lat="45.40462" lon="9.0758283"><ele>112.0</ele><time>2026-04-18T08:56:04.988Z</time></trkpt><trkpt lat="45.4047567" lon="9.0756967"><ele>112.0</ele><time>2026-04-18T08:56:05.987Z</time></trkpt><trkpt lat="45.4048883" lon="9.0755783"><ele>111.0</ele><time>2026-04-18T08:56:06.987Z</time></trkpt><trkpt lat="45.4050317" lon="9.075475"><ele>110.0</ele><time>2026-04-18T08:56:07.987Z</time></trkpt><trkpt lat="45.4051817" lon="9.0753833"><ele>109.0</ele><time>2026-04-18T08:56:08.987Z</time></trkpt><trkpt lat="45.4053267" lon="9.0753"><ele>109.0</ele><time>2026-04-18T08:56:09.987Z</time></trkpt><trkpt lat="45.4054767" lon="9.0752417"><ele>109.0</ele><time>2026-04-18T08:56:10.987Z</time></trkpt><trkpt lat="45.4056333" lon="9.075195"><ele>109.0</ele><time>2026-04-18T08:56:11.987Z</time></trkpt><trkpt lat="45.4057833" lon="9.0751483"><ele>109.33333333333334</ele><time>2026-04-18T08:56:12.987Z</time></trkpt><trkpt lat="45.405935" lon="9.07511"><ele>109.66666666666666</ele><time>2026-04-18T08:56:13.987Z</time></trkpt><trkpt lat="45.406095" lon="9.07508"><ele>110.0</ele><time>2026-04-18T08:56:14.988Z</time></trkpt><trkpt lat="45.4062433" lon="9.0750333"><ele>109.0</ele><time>2026-04-18T08:56:15.987Z</time></trkpt><trkpt lat="45.4063917" lon="9.0749917"><ele>108.0</ele><time>2026-04-18T08:56:16.987Z</time></trkpt><trkpt lat="45.4065433" lon="9.0749567"><ele>107.0</ele><time>2026-04-18T08:56:17.987Z</time></trkpt><trkpt lat="45.4066883" lon="9.0749233"><ele>107.0</ele><time>2026-04-18T08:56:18.987Z</time></trkpt><trkpt lat="45.4068367" lon="9.0748883"><ele>107.0</ele><time>2026-04-18T08:56:19.987Z</time></trkpt><trkpt lat="45.4069817" lon="9.07485"><ele>107.0</ele><time>2026-04-18T08:56:20.987Z</time></trkpt><trkpt lat="45.4071317" lon="9.074805"><ele>106.5</ele><time>2026-04-18T08:56:21.987Z</time></trkpt><trkpt lat="45.4072783" lon="9.0747733"><ele>106.0</ele><time>2026-04-18T08:56:22.987Z</time></trkpt><trkpt lat="45.4074233" lon="9.074735"><ele>105.5</ele><time>2026-04-18T08:56:23.987Z</time></trkpt><trkpt lat="45.4075467" lon="9.0747083"><ele>105.0</ele><time>2026-04-18T08:56:24.987Z</time></trkpt><trkpt lat="45.4076667" lon="9.07467"><ele>105.0</ele><time>2026-04-18T08:56:25.987Z</time></trkpt><trkpt lat="45.4077833" lon="9.0746333"><ele>105.0</ele><time>2026-04-18T08:56:26.987Z</time></trkpt><trkpt lat="45.407895" lon="9.0745983"><ele>105.0</ele><time>2026-04-18T08:56:27.987Z</time></trkpt><trkpt lat="45.40802" lon="9.0745717"><ele>105.0</ele><time>2026-04-18T08:56:28.987Z</time></trkpt><trkpt lat="45.40815" lon="9.0745333"><ele>105.5</ele><time>2026-04-18T08:56:29.987Z</time></trkpt><trkpt lat="45.40828" lon="9.0745067"><ele>106.0</ele><time>2026-04-18T08:56:30.987Z</time></trkpt><trkpt lat="45.4084167" lon="9.07447"><ele>106.5</ele><time>2026-04-18T08:56:31.987Z</time></trkpt><trkpt lat="45.4085567" lon="9.0744383"><ele>107.0</ele><time>2026-04-18T08:56:32.987Z</time></trkpt><trkpt lat="45.40869" lon="9.0744017"><ele>107.0</ele><time>2026-04-18T08:56:33.987Z</time></trkpt><trkpt lat="45.408825" lon="9.0743633"><ele>107.0</ele><time>2026-04-18T08:56:34.987Z</time></trkpt><trkpt lat="45.408955" lon="9.074325"><ele>107.0</ele><time>2026-04-18T08:56:35.986Z</time></trkpt><trkpt lat="45.4090917" lon="9.0742817"><ele>107.0</ele><time>2026-04-18T08:56:36.986Z</time></trkpt><trkpt lat="45.409225" lon="9.0742433"><ele>107.25</ele><time>2026-04-18T08:56:37.986Z</time></trkpt><trkpt lat="45.4093683" lon="9.0742033"><ele>107.5</ele><time>2026-04-18T08:56:38.986Z</time></trkpt><trkpt lat="45.40951" lon="9.0741633"><ele>107.75</ele><time>2026-04-18T08:56:39.986Z</time></trkpt><trkpt lat="45.4096567" lon="9.074125"><ele>108.0</ele><time>2026-04-18T08:56:40.986Z</time></trkpt><trkpt lat="45.409805" lon="9.07409"><ele>108.0</ele><time>2026-04-18T08:56:41.986Z</time></trkpt><trkpt lat="45.4099517" lon="9.07405"><ele>108.0</ele><time>2026-04-18T08:56:42.986Z</time></trkpt><trkpt lat="45.4100967" lon="9.074005"><ele>108.0</ele><time>2026-04-18T08:56:43.986Z</time></trkpt><trkpt lat="45.4102383" lon="9.0739683"><ele>108.0</ele><time>2026-04-18T08:56:44.987Z</time></trkpt><trkpt lat="45.4103867" lon="9.07392"><ele>108.0</ele><time>2026-04-18T08:56:45.986Z</time></trkpt><trkpt lat="45.4105267" lon="9.073885"><ele>108.0</ele><time>2026-04-18T08:56:46.986Z</time></trkpt><trkpt lat="45.4106767" lon="9.0738533"><ele>108.0</ele><time>2026-04-18T08:56:47.986Z</time></trkpt><trkpt lat="45.4108183" lon="9.0738133"><ele>108.0</ele><time>2026-04-18T08:56:48.986Z</time></trkpt><trkpt lat="45.410955" lon="9.07377"><ele>108.0</ele><time>2026-04-18T08:56:49.986Z</time></trkpt><trkpt lat="45.4110917" lon="9.0737217"><ele>108.0</ele><time>2026-04-18T08:56:50.986Z</time></trkpt><trkpt lat="45.41123" lon="9.0736667"><ele>108.0</ele><time>2026-04-18T08:56:51.986Z</time></trkpt><trkpt lat="45.411375" lon="9.0736167"><ele>108.0</ele><time>2026-04-18T08:56:52.987Z</time></trkpt><trkpt lat="45.41152" lon="9.0735617"><ele>108.0</ele><time>2026-04-18T08:56:53.986Z</time></trkpt><trkpt lat="45.4116567" lon="9.0734967"><ele>108.0</ele><time>2026-04-18T08:56:54.986Z</time></trkpt><trkpt lat="45.411795" lon="9.073445"><ele>108.0</ele><time>2026-04-18T08:56:55.986Z</time></trkpt><trkpt lat="45.4119283" lon="9.07339"><ele>108.0</ele><time>2026-04-18T08:56:56.987Z</time></trkpt><trkpt lat="45.4120583" lon="9.0733367"><ele>108.25</ele><time>2026-04-18T08:56:57.987Z</time></trkpt><trkpt lat="45.41219" lon="9.0732917"><ele>108.5</ele><time>2026-04-18T08:56:58.987Z</time></trkpt><trkpt lat="45.4123117" lon="9.0732467"><ele>108.75</ele><time>2026-04-18T08:56:59.986Z</time></trkpt><trkpt lat="45.4124283" lon="9.0731933"><ele>109.0</ele><time>2026-04-18T08:57:00.986Z</time></trkpt><trkpt lat="45.4125433" lon="9.0731433"><ele>109.0</ele><time>2026-04-18T08:57:01.986Z</time></trkpt><trkpt lat="45.4126633" lon="9.0730933"><ele>109.0</ele><time>2026-04-18T08:57:02.986Z</time></trkpt><trkpt lat="45.4127867" lon="9.0730517"><ele>109.0</ele><time>2026-04-18T08:57:03.986Z</time></trkpt><trkpt lat="45.412895" lon="9.073005"><ele>109.0</ele><time>2026-04-18T08:57:04.986Z</time></trkpt><trkpt lat="45.413" lon="9.072955"><ele>109.2</ele><time>2026-04-18T08:57:05.986Z</time></trkpt><trkpt lat="45.4131033" lon="9.0729083"><ele>109.4</ele><time>2026-04-18T08:57:06.986Z</time></trkpt><trkpt lat="45.41321" lon="9.0728583"><ele>109.6</ele><time>2026-04-18T08:57:07.986Z</time></trkpt><trkpt lat="45.4133017" lon="9.0728167"><ele>109.8</ele><time>2026-04-18T08:57:08.986Z</time></trkpt><trkpt lat="45.413385" lon="9.072795"><ele>110.0</ele><time>2026-04-18T08:57:09.986Z</time></trkpt><trkpt lat="45.4134467" lon="9.07277"><ele>109.99999999999999</ele><time>2026-04-18T08:57:10.986Z</time></trkpt><trkpt lat="45.413555" lon="9.0727283"><ele>110.0</ele><time>2026-04-18T08:57:12.987Z</time></trkpt><trkpt lat="45.4136267" lon="9.0726933"><ele>110.0</ele><time>2026-04-18T08:57:14.986Z</time></trkpt><trkpt lat="45.4136933" lon="9.0726783"><ele>110.0</ele><time>2026-04-18T08:57:16.986Z</time></trkpt><trkpt lat="45.413765" lon="9.0726383"><ele>109.99999999999999</ele><time>2026-04-18T08:57:19.986Z</time></trkpt><trkpt lat="45.4138633" lon="9.0725983"><ele>110.0</ele><time>2026-04-18T08:57:49.986Z</time></trkpt><trkpt lat="45.4139683" lon="9.0725717"><ele>110.8</ele><time>2026-04-18T08:57:51.986Z</time></trkpt><trkpt lat="45.414045" lon="9.0725467"><ele>111.6</ele><time>2026-04-18T08:57:52.986Z</time></trkpt><trkpt lat="45.4141317" lon="9.0725167"><ele>112.4</ele><time>2026-04-18T08:57:53.986Z</time></trkpt><trkpt lat="45.4142283" lon="9.0724833"><ele>113.2</ele><time>2026-04-18T08:57:54.986Z</time></trkpt><trkpt lat="45.4143383" lon="9.0724417"><ele>114.0</ele><time>2026-04-18T08:57:55.986Z</time></trkpt><trkpt lat="45.41445" lon="9.0724033"><ele>114.0</ele><time>2026-04-18T08:57:56.986Z</time></trkpt><trkpt lat="45.4145683" lon="9.0723533"><ele>114.0</ele><time>2026-04-18T08:57:57.986Z</time></trkpt><trkpt lat="45.41468" lon="9.072305"><ele>114.0</ele><time>2026-04-18T08:57:58.986Z</time></trkpt><trkpt lat="45.4147967" lon="9.072245"><ele>114.0</ele><time>2026-04-18T08:57:59.986Z</time></trkpt><trkpt lat="45.4149183" lon="9.0721867"><ele>113.5</ele><time>2026-04-18T08:58:00.986Z</time></trkpt><trkpt lat="45.415035" lon="9.0721267"><ele>113.0</ele><time>2026-04-18T08:58:01.986Z</time></trkpt><trkpt lat="45.4151617" lon="9.0720817"><ele>112.5</ele><time>2026-04-18T08:58:02.986Z</time></trkpt><trkpt lat="45.41529" lon="9.0720283"><ele>112.0</ele><time>2026-04-18T08:58:03.986Z</time></trkpt><trkpt lat="45.415415" lon="9.071975"><ele>111.75</ele><time>2026-04-18T08:58:04.986Z</time></trkpt><trkpt lat="45.415525" lon="9.0719233"><ele>111.5</ele><time>2026-04-18T08:58:05.986Z</time></trkpt><trkpt lat="45.415645" lon="9.0718567"><ele>111.25</ele><time>2026-04-18T08:58:06.986Z</time></trkpt><trkpt lat="45.4157567" lon="9.0717783"><ele>111.0</ele><time>2026-04-18T08:58:07.986Z</time></trkpt><trkpt lat="45.4158583" lon="9.0716983"><ele>111.0</ele><time>2026-04-18T08:58:08.986Z</time></trkpt><trkpt lat="45.4159567" lon="9.071615"><ele>111.0</ele><time>2026-04-18T08:58:09.986Z</time></trkpt><trkpt lat="45.416045" lon="9.07151"><ele>111.0</ele><time>2026-04-18T08:58:10.986Z</time></trkpt><trkpt lat="45.41612" lon="9.0714117"><ele>111.0</ele><time>2026-04-18T08:58:11.986Z</time></trkpt><trkpt lat="45.4161833" lon="9.0713217"><ele>111.0</ele><time>2026-04-18T08:58:12.986Z</time></trkpt><trkpt lat="45.4162367" lon="9.0712417"><ele>111.19999999999999</ele><time>2026-04-18T08:58:13.986Z</time></trkpt><trkpt lat="45.416285" lon="9.0711733"><ele>111.39999999999999</ele><time>2026-04-18T08:58:14.987Z</time></trkpt><trkpt lat="45.416345" lon="9.0710817"><ele>111.6</ele><time>2026-04-18T08:58:16.986Z</time></trkpt><trkpt lat="45.41639" lon="9.071005"><ele>111.8</ele><time>2026-04-18T08:58:19.986Z</time></trkpt><trkpt lat="45.4164683" lon="9.0708917"><ele>112.0</ele><time>2026-04-18T08:58:22.986Z</time></trkpt><trkpt lat="45.4165517" lon="9.0707667"><ele>112.19999999999999</ele><time>2026-04-18T08:58:24.986Z</time></trkpt><trkpt lat="45.41663" lon="9.0706483"><ele>112.39999999999999</ele><time>2026-04-18T08:58:26.986Z</time></trkpt><trkpt lat="45.4166983" lon="9.070555"><ele>112.60000000000001</ele><time>2026-04-18T08:58:28.986Z</time></trkpt><trkpt lat="45.4167733" lon="9.070485"><ele>112.80000000000001</ele><time>2026-04-18T08:58:30.986Z</time></trkpt><trkpt lat="45.4168767" lon="9.07039"><ele>113.0</ele><time>2026-04-18T08:58:32.986Z</time></trkpt><trkpt lat="45.4169367" lon="9.07035"><ele>112.99999999999999</ele><time>2026-04-18T08:58:33.986Z</time></trkpt><trkpt lat="45.4170067" lon="9.07033"><ele>113.0</ele><time>2026-04-18T08:58:34.986Z</time></trkpt><trkpt lat="45.4170967" lon="9.0703083"><ele>113.0</ele><time>2026-04-18T08:58:36.986Z</time></trkpt><trkpt lat="45.4171567" lon="9.0702617"><ele>113.0</ele><time>2026-04-18T08:58:38.986Z</time></trkpt><trkpt lat="45.4171933" lon="9.07014"><ele>112.99999999999999</ele><time>2026-04-18T08:58:40.986Z</time></trkpt><trkpt lat="45.4171867" lon="9.0700483"><ele>113.0</ele><time>2026-04-18T08:58:41.986Z</time></trkpt><trkpt lat="45.41717" lon="9.0699333"><ele>112.60000000000001</ele><time>2026-04-18T08:58:42.986Z</time></trkpt><trkpt lat="45.41715" lon="9.0698067"><ele>112.20000000000002</ele><time>2026-04-18T08:58:43.986Z</time></trkpt><trkpt lat="45.417135" lon="9.0696733"><ele>111.8</ele><time>2026-04-18T08:58:44.986Z</time></trkpt><trkpt lat="45.41712" lon="9.0695383"><ele>111.4</ele><time>2026-04-18T08:58:45.986Z</time></trkpt><trkpt lat="45.4170983" lon="9.0694067"><ele>111.0</ele><time>2026-04-18T08:58:46.986Z</time></trkpt><trkpt lat="45.417085" lon="9.0692717"><ele>111.0</ele><time>2026-04-18T08:58:47.986Z</time></trkpt><trkpt lat="45.4170767" lon="9.0691383"><ele>111.0</ele><time>2026-04-18T08:58:48.986Z</time></trkpt><trkpt lat="45.4170683" lon="9.0689933"><ele>111.0</ele><time>2026-04-18T08:58:49.986Z</time></trkpt><trkpt lat="45.4170583" lon="9.06884"><ele>111.0</ele><time>2026-04-18T08:58:50.986Z</time></trkpt><trkpt lat="45.4170483" lon="9.068695"><ele>111.0</ele><time>2026-04-18T08:58:51.986Z</time></trkpt><trkpt lat="45.41704" lon="9.0685583"><ele>111.4</ele><time>2026-04-18T08:58:52.986Z</time></trkpt><trkpt lat="45.4170283" lon="9.0684167"><ele>111.8</ele><time>2026-04-18T08:58:53.986Z</time></trkpt><trkpt lat="45.4170167" lon="9.0682733"><ele>112.20000000000002</ele><time>2026-04-18T08:58:54.986Z</time></trkpt><trkpt lat="45.4170117" lon="9.068145"><ele>112.60000000000001</ele><time>2026-04-18T08:58:55.986Z</time></trkpt><trkpt lat="45.41701" lon="9.0680233"><ele>113.0</ele><time>2026-04-18T08:58:56.986Z</time></trkpt><trkpt lat="45.4170083" lon="9.0679"><ele>112.99999999999999</ele><time>2026-04-18T08:58:57.986Z</time></trkpt><trkpt lat="45.4170067" lon="9.06778"><ele>113.0</ele><time>2026-04-18T08:58:58.986Z</time></trkpt><trkpt lat="45.4170067" lon="9.0676683"><ele>113.0</ele><time>2026-04-18T08:58:59.986Z</time></trkpt><trkpt lat="45.4169967" lon="9.0675583"><ele>113.0</ele><time>2026-04-18T08:59:00.986Z</time></trkpt><trkpt lat="45.4169867" lon="9.0674533"><ele>112.99999999999999</ele><time>2026-04-18T08:59:01.986Z</time></trkpt><trkpt lat="45.4169733" lon="9.0673417"><ele>113.0</ele><time>2026-04-18T08:59:02.986Z</time></trkpt><trkpt lat="45.41696" lon="9.0672333"><ele>113.16666666666666</ele><time>2026-04-18T08:59:03.986Z</time></trkpt><trkpt lat="45.41694" lon="9.0671267"><ele>113.33333333333333</ele><time>2026-04-18T08:59:04.986Z</time></trkpt><trkpt lat="45.4169167" lon="9.06702"><ele>113.5</ele><time>2026-04-18T08:59:05.986Z</time></trkpt><trkpt lat="45.416885" lon="9.0669067"><ele>113.66666666666666</ele><time>2026-04-18T08:59:06.986Z</time></trkpt><trkpt lat="45.4168483" lon="9.0667867"><ele>113.83333333333333</ele><time>2026-04-18T08:59:07.986Z</time></trkpt><trkpt lat="45.4168083" lon="9.0666667"><ele>114.0</ele><time>2026-04-18T08:59:08.986Z</time></trkpt><trkpt lat="45.4167667" lon="9.0665317"><ele>114.6</ele><time>2026-04-18T08:59:09.986Z</time></trkpt><trkpt lat="45.4167133" lon="9.0663883"><ele>115.2</ele><time>2026-04-18T08:59:10.986Z</time></trkpt><trkpt lat="45.416675" lon="9.0662433"><ele>115.79999999999998</ele><time>2026-04-18T08:59:11.986Z</time></trkpt><trkpt lat="45.41663" lon="9.0661017"><ele>116.39999999999999</ele><time>2026-04-18T08:59:12.986Z</time></trkpt><trkpt lat="45.41658" lon="9.0659517"><ele>117.0</ele><time>2026-04-18T08:59:13.987Z</time></trkpt><trkpt lat="45.4165417" lon="9.0657967"><ele>116.75</ele><time>2026-04-18T08:59:14.986Z</time></trkpt><trkpt lat="45.4164883" lon="9.0656367"><ele>116.5</ele><time>2026-04-18T08:59:15.986Z</time></trkpt><trkpt lat="45.4164467" lon="9.0654733"><ele>116.25</ele><time>2026-04-18T08:59:16.986Z</time></trkpt><trkpt lat="45.4163933" lon="9.0653183"><ele>116.0</ele><time>2026-04-18T08:59:17.986Z</time></trkpt><trkpt lat="45.4163467" lon="9.06516"><ele>114.75</ele><time>2026-04-18T08:59:18.986Z</time></trkpt><trkpt lat="45.4162883" lon="9.065"><ele>113.5</ele><time>2026-04-18T08:59:19.986Z</time></trkpt><trkpt lat="45.4162367" lon="9.0648267"><ele>112.25</ele><time>2026-04-18T08:59:20.987Z</time></trkpt><trkpt lat="45.4161783" lon="9.0646483"><ele>111.0</ele><time>2026-04-18T08:59:21.986Z</time></trkpt><trkpt lat="45.41613" lon="9.0644783"><ele>111.0</ele><time>2026-04-18T08:59:22.986Z</time></trkpt><trkpt lat="45.4160817" lon="9.06431"><ele>111.0</ele><time>2026-04-18T08:59:23.986Z</time></trkpt><trkpt lat="45.4160233" lon="9.0641383"><ele>111.0</ele><time>2026-04-18T08:59:24.987Z</time></trkpt><trkpt lat="45.4159717" lon="9.0639683"><ele>111.0</ele><time>2026-04-18T08:59:25.986Z</time></trkpt><trkpt lat="45.4159133" lon="9.0638017"><ele>111.75</ele><time>2026-04-18T08:59:26.987Z</time></trkpt><trkpt lat="45.415855" lon="9.0636317"><ele>112.5</ele><time>2026-04-18T08:59:27.986Z</time></trkpt><trkpt lat="45.4158133" lon="9.0634567"><ele>113.25</ele><time>2026-04-18T08:59:28.986Z</time></trkpt><trkpt lat="45.41577" lon="9.06329"><ele>114.0</ele><time>2026-04-18T08:59:29.987Z</time></trkpt><trkpt lat="45.4157133" lon="9.0631333"><ele>114.5</ele><time>2026-04-18T08:59:30.986Z</time></trkpt><trkpt lat="45.415655" lon="9.06296"><ele>115.0</ele><time>2026-04-18T08:59:31.986Z</time></trkpt><trkpt lat="45.4155983" lon="9.0627917"><ele>115.5</ele><time>2026-04-18T08:59:32.986Z</time></trkpt><trkpt lat="45.4155483" lon="9.0626167"><ele>116.0</ele><time>2026-04-18T08:59:33.986Z</time></trkpt><trkpt lat="45.415495" lon="9.0624383"><ele>116.0</ele><time>2026-04-18T08:59:34.986Z</time></trkpt><trkpt lat="45.4154417" lon="9.06226"><ele>116.0</ele><time>2026-04-18T08:59:35.986Z</time></trkpt><trkpt lat="45.415385" lon="9.0620767"><ele>116.0</ele><time>2026-04-18T08:59:36.986Z</time></trkpt><trkpt lat="45.4153333" lon="9.0618817"><ele>116.0</ele><time>2026-04-18T08:59:37.986Z</time></trkpt><trkpt lat="45.41528" lon="9.0616783"><ele>116.0</ele><time>2026-04-18T08:59:38.986Z</time></trkpt><trkpt lat="45.4152183" lon="9.0614883"><ele>116.0</ele><time>2026-04-18T08:59:39.986Z</time></trkpt><trkpt lat="45.4151533" lon="9.0612983"><ele>116.0</ele><time>2026-04-18T08:59:40.986Z</time></trkpt><trkpt lat="45.4150733" lon="9.061095"><ele>116.0</ele><time>2026-04-18T08:59:41.986Z</time></trkpt><trkpt lat="45.4150017" lon="9.0608967"><ele>116.0</ele><time>2026-04-18T08:59:42.986Z</time></trkpt><trkpt lat="45.41494" lon="9.0606917"><ele>116.0</ele><time>2026-04-18T08:59:43.986Z</time></trkpt><trkpt lat="45.414875" lon="9.060495"><ele>116.0</ele><time>2026-04-18T08:59:44.986Z</time></trkpt><trkpt lat="45.4148217" lon="9.0603017"><ele>116.0</ele><time>2026-04-18T08:59:45.986Z</time></trkpt><trkpt lat="45.41477" lon="9.0601067"><ele>116.0</ele><time>2026-04-18T08:59:46.986Z</time></trkpt><trkpt lat="45.4147067" lon="9.0599117"><ele>116.0</ele><time>2026-04-18T08:59:47.986Z</time></trkpt><trkpt lat="45.4146433" lon="9.0597233"><ele>115.25</ele><time>2026-04-18T08:59:48.987Z</time></trkpt><trkpt lat="45.4145867" lon="9.0595367"><ele>114.5</ele><time>2026-04-18T08:59:49.987Z</time></trkpt><trkpt lat="45.414525" lon="9.0593433"><ele>113.75</ele><time>2026-04-18T08:59:50.986Z</time></trkpt><trkpt lat="45.41446" lon="9.0591567"><ele>113.0</ele><time>2026-04-18T08:59:51.986Z</time></trkpt><trkpt lat="45.4143967" lon="9.058965"><ele>113.0</ele><time>2026-04-18T08:59:52.986Z</time></trkpt><trkpt lat="45.4143417" lon="9.05878"><ele>113.0</ele><time>2026-04-18T08:59:53.986Z</time></trkpt><trkpt lat="45.4142833" lon="9.0585867"><ele>113.0</ele><time>2026-04-18T08:59:54.986Z</time></trkpt><trkpt lat="45.4142267" lon="9.058395"><ele>113.0</ele><time>2026-04-18T08:59:55.986Z</time></trkpt><trkpt lat="45.4141667" lon="9.05821"><ele>114.25</ele><time>2026-04-18T08:59:56.986Z</time></trkpt><trkpt lat="45.4141167" lon="9.0580267"><ele>115.5</ele><time>2026-04-18T08:59:57.986Z</time></trkpt><trkpt lat="45.414065" lon="9.0578483"><ele>116.75</ele><time>2026-04-18T08:59:58.986Z</time></trkpt><trkpt lat="45.414" lon="9.0576717"><ele>118.0</ele><time>2026-04-18T08:59:59.986Z</time></trkpt><trkpt lat="45.4139367" lon="9.057495"><ele>117.5</ele><time>2026-04-18T09:00:00.986Z</time></trkpt><trkpt lat="45.4138717" lon="9.0573117"><ele>117.0</ele><time>2026-04-18T09:00:01.986Z</time></trkpt><trkpt lat="45.41382" lon="9.0571367"><ele>116.5</ele><time>2026-04-18T09:00:02.986Z</time></trkpt><trkpt lat="45.4137667" lon="9.0569583"><ele>116.0</ele><time>2026-04-18T09:00:03.986Z</time></trkpt><trkpt lat="45.4137217" lon="9.0567867"><ele>115.5</ele><time>2026-04-18T09:00:04.986Z</time></trkpt><trkpt lat="45.4136667" lon="9.0566133"><ele>115.0</ele><time>2026-04-18T09:00:05.986Z</time></trkpt><trkpt lat="45.413615" lon="9.0564483"><ele>114.5</ele><time>2026-04-18T09:00:06.986Z</time></trkpt><trkpt lat="45.4135683" lon="9.0562933"><ele>114.0</ele><time>2026-04-18T09:00:07.986Z</time></trkpt><trkpt lat="45.4135233" lon="9.0561483"><ele>114.0</ele><time>2026-04-18T09:00:08.986Z</time></trkpt><trkpt lat="45.413475" lon="9.0560233"><ele>114.0</ele><time>2026-04-18T09:00:09.986Z</time></trkpt><trkpt lat="45.413435" lon="9.0559033"><ele>114.0</ele><time>2026-04-18T09:00:10.986Z</time></trkpt><trkpt lat="45.4133967" lon="9.0557683"><ele>114.0</ele><time>2026-04-18T09:00:11.986Z</time></trkpt><trkpt lat="45.4133583" lon="9.0556317"><ele>114.0</ele><time>2026-04-18T09:00:12.986Z</time></trkpt><trkpt lat="45.4133183" lon="9.0555183"><ele>114.0</ele><time>2026-04-18T09:00:13.986Z</time></trkpt><trkpt lat="45.4132783" lon="9.0554167"><ele>114.0</ele><time>2026-04-18T09:00:14.986Z</time></trkpt><trkpt lat="45.4132367" lon="9.0553033"><ele>114.0</ele><time>2026-04-18T09:00:15.986Z</time></trkpt><trkpt lat="45.4131933" lon="9.0551667"><ele>114.0</ele><time>2026-04-18T09:00:16.986Z</time></trkpt><trkpt lat="45.4131483" lon="9.0550217"><ele>114.0</ele><time>2026-04-18T09:00:17.986Z</time></trkpt><trkpt lat="45.4130967" lon="9.0548717"><ele>113.80000000000001</ele><time>2026-04-18T09:00:18.986Z</time></trkpt><trkpt lat="45.4130617" lon="9.0547333"><ele>113.60000000000001</ele><time>2026-04-18T09:00:19.986Z</time></trkpt><trkpt lat="45.4130217" lon="9.0546033"><ele>113.4</ele><time>2026-04-18T09:00:20.987Z</time></trkpt><trkpt lat="45.4129867" lon="9.054495"><ele>113.2</ele><time>2026-04-18T09:00:21.986Z</time></trkpt><trkpt lat="45.412955" lon="9.0544067"><ele>113.0</ele><time>2026-04-18T09:00:22.986Z</time></trkpt><trkpt lat="45.412895" lon="9.0542917"><ele>113.0</ele><time>2026-04-18T09:00:24.986Z</time></trkpt></trkseg></trk></gpx>